<?xml version="1.0" encoding="utf-8"?>
<gpx xmlns:xsi="http://www.w3.org/2001/XMLSchema-instance" xmlns:xsd="http://www.w3.org/2001/XMLSchema" version="1.1" creator="Shapelink.com" xmlns="http://www.topografix.com/GPX/1/1" xmlns:gpxtpx="http://www.garmin.com/xmlschemas/TrackPointExtension/v1">
  <metadata>
    <name>Längdskidåkning Skate 11.47 km, 2019-12-30</name>
    <desc></desc>
    <author><name>Per Rooth</name></author> 
    <time>2019-12-30T18:02:24Z</time>
  </metadata>
  <trk>
    <name>Längdskidåkning Skate 11.47 km, 2019-12-30</name>
    <trkseg>
      <trkpt lat="61.303420526468" lon="12.242093101385">
        <ele>442.4</ele>
        <time>2019-12-30T18:02:24Z</time>
      </trkpt>
      <trkpt lat="61.303030265204" lon="12.242547148908">
        <ele>442.6</ele>
        <time>2019-12-30T18:02:34Z</time>
      </trkpt>
      <trkpt lat="61.30293839958" lon="12.242642199654">
        <ele>442.6</ele>
        <time>2019-12-30T18:02:36Z</time>
      </trkpt>
      <trkpt lat="61.302607565987" lon="12.24297026722">
        <ele>443</ele>
        <time>2019-12-30T18:02:44Z</time>
      </trkpt>
      <trkpt lat="61.302533637629" lon="12.243028521425">
        <ele>443.4</ele>
        <time>2019-12-30T18:02:46Z</time>
      </trkpt>
      <trkpt lat="61.302074728604" lon="12.243262376435">
        <ele>443</ele>
        <time>2019-12-30T18:02:58Z</time>
      </trkpt>
      <trkpt lat="61.301835676816" lon="12.24334745272">
        <ele>443.4</ele>
        <time>2019-12-30T18:03:04Z</time>
      </trkpt>
      <trkpt lat="61.301636187596" lon="12.243408808228">
        <ele>443.6</ele>
        <time>2019-12-30T18:03:08Z</time>
      </trkpt>
      <trkpt lat="61.301533090226" lon="12.243424482381">
        <ele>443.2</ele>
        <time>2019-12-30T18:03:10Z</time>
      </trkpt>
      <trkpt lat="61.301317004844" lon="12.243347201263">
        <ele>441.8</ele>
        <time>2019-12-30T18:03:14Z</time>
      </trkpt>
      <trkpt lat="61.301163280798" lon="12.243292383637">
        <ele>442</ele>
        <time>2019-12-30T18:03:18Z</time>
      </trkpt>
      <trkpt lat="61.301061105437" lon="12.243289198515">
        <ele>443</ele>
        <time>2019-12-30T18:03:23Z</time>
      </trkpt>
      <trkpt lat="61.300985584518" lon="12.243283917918">
        <ele>444</ele>
        <time>2019-12-30T18:03:27Z</time>
      </trkpt>
      <trkpt lat="61.30093847824" lon="12.243243433341">
        <ele>445</ele>
        <time>2019-12-30T18:03:30Z</time>
      </trkpt>
      <trkpt lat="61.300848121358" lon="12.243203451678">
        <ele>446.2</ele>
        <time>2019-12-30T18:03:34Z</time>
      </trkpt>
      <trkpt lat="61.300551821193" lon="12.243037657696">
        <ele>447.4</ele>
        <time>2019-12-30T18:03:44Z</time>
      </trkpt>
      <trkpt lat="61.300412430196" lon="12.242865744927">
        <ele>448.4</ele>
        <time>2019-12-30T18:03:51Z</time>
      </trkpt>
      <trkpt lat="61.300361719701" lon="12.242750409983">
        <ele>449.6</ele>
        <time>2019-12-30T18:03:56Z</time>
      </trkpt>
      <trkpt lat="61.30034336334" lon="12.242656532703">
        <ele>450.6</ele>
        <time>2019-12-30T18:04:00Z</time>
      </trkpt>
      <trkpt lat="61.300324504065" lon="12.242580005956">
        <ele>451</ele>
        <time>2019-12-30T18:04:03Z</time>
      </trkpt>
      <trkpt lat="61.30029977746" lon="12.242505490865">
        <ele>452</ele>
        <time>2019-12-30T18:04:06Z</time>
      </trkpt>
      <trkpt lat="61.30028217547" lon="12.242426198091">
        <ele>453.4</ele>
        <time>2019-12-30T18:04:09Z</time>
      </trkpt>
      <trkpt lat="61.300269351163" lon="12.24226618762">
        <ele>454.6</ele>
        <time>2019-12-30T18:04:13Z</time>
      </trkpt>
      <trkpt lat="61.300221071419" lon="12.241510307878">
        <ele>454.8</ele>
        <time>2019-12-30T18:04:23Z</time>
      </trkpt>
      <trkpt lat="61.30013633041" lon="12.240952073338">
        <ele>455.6</ele>
        <time>2019-12-30T18:04:33Z</time>
      </trkpt>
      <trkpt lat="61.299978583052" lon="12.240816035101">
        <ele>456.8</ele>
        <time>2019-12-30T18:04:40Z</time>
      </trkpt>
      <trkpt lat="61.299796779641" lon="12.240717715414">
        <ele>457.8</ele>
        <time>2019-12-30T18:04:47Z</time>
      </trkpt>
      <trkpt lat="61.299773561778" lon="12.240692988809">
        <ele>457.8</ele>
        <time>2019-12-30T18:04:48Z</time>
      </trkpt>
      <trkpt lat="61.299697705583" lon="12.240541360238">
        <ele>458.6</ele>
        <time>2019-12-30T18:04:53Z</time>
      </trkpt>
      <trkpt lat="61.29968873695" lon="12.240512358864">
        <ele>458.8</ele>
        <time>2019-12-30T18:04:54Z</time>
      </trkpt>
      <trkpt lat="61.299682450525" lon="12.240472712477">
        <ele>459</ele>
        <time>2019-12-30T18:04:55Z</time>
      </trkpt>
      <trkpt lat="61.299670883503" lon="12.240307672866">
        <ele>460</ele>
        <time>2019-12-30T18:04:59Z</time>
      </trkpt>
      <trkpt lat="61.299629896012" lon="12.240053114563">
        <ele>461.2</ele>
        <time>2019-12-30T18:05:07Z</time>
      </trkpt>
      <trkpt lat="61.299684965095" lon="12.239832838231">
        <ele>462.2</ele>
        <time>2019-12-30T18:05:13Z</time>
      </trkpt>
      <trkpt lat="61.299751852657" lon="12.239708618473">
        <ele>463</ele>
        <time>2019-12-30T18:05:17Z</time>
      </trkpt>
      <trkpt lat="61.299849753249" lon="12.239662937118">
        <ele>463.4</ele>
        <time>2019-12-30T18:05:21Z</time>
      </trkpt>
      <trkpt lat="61.300301956754" lon="12.239621781989">
        <ele>462.4</ele>
        <time>2019-12-30T18:05:31Z</time>
      </trkpt>
      <trkpt lat="61.300385775754" lon="12.239530922193">
        <ele>462.4</ele>
        <time>2019-12-30T18:05:33Z</time>
      </trkpt>
      <trkpt lat="61.30051854505" lon="12.239088190235">
        <ele>464.4</ele>
        <time>2019-12-30T18:05:43Z</time>
      </trkpt>
      <trkpt lat="61.300540086533" lon="12.239034294618">
        <ele>465</ele>
        <time>2019-12-30T18:05:45Z</time>
      </trkpt>
      <trkpt lat="61.300573446495" lon="12.238953744559">
        <ele>465.6</ele>
        <time>2019-12-30T18:05:48Z</time>
      </trkpt>
      <trkpt lat="61.300610075398" lon="12.238876798717">
        <ele>466.6</ele>
        <time>2019-12-30T18:05:51Z</time>
      </trkpt>
      <trkpt lat="61.300648296862" lon="12.238790716604">
        <ele>467.8</ele>
        <time>2019-12-30T18:05:54Z</time>
      </trkpt>
      <trkpt lat="61.300750639861" lon="12.238621486043">
        <ele>468.8</ele>
        <time>2019-12-30T18:06:00Z</time>
      </trkpt>
      <trkpt lat="61.301090274449" lon="12.238563650933">
        <ele>469.8</ele>
        <time>2019-12-30T18:06:09Z</time>
      </trkpt>
      <trkpt lat="61.301405433889" lon="12.238887611368">
        <ele>468.4</ele>
        <time>2019-12-30T18:06:14Z</time>
      </trkpt>
      <trkpt lat="61.301665608065" lon="12.239151138304">
        <ele>467.4</ele>
        <time>2019-12-30T18:06:18Z</time>
      </trkpt>
      <trkpt lat="61.301779601905" lon="12.239149378105">
        <ele>467</ele>
        <time>2019-12-30T18:06:20Z</time>
      </trkpt>
      <trkpt lat="61.301847579114" lon="12.239047202744">
        <ele>466.8</ele>
        <time>2019-12-30T18:06:22Z</time>
      </trkpt>
      <trkpt lat="61.301961153859" lon="12.238497266285">
        <ele>468.4</ele>
        <time>2019-12-30T18:06:34Z</time>
      </trkpt>
      <trkpt lat="61.302042123013" lon="12.238271625537">
        <ele>469.6</ele>
        <time>2019-12-30T18:06:39Z</time>
      </trkpt>
      <trkpt lat="61.302156200672" lon="12.238002650366">
        <ele>470.6</ele>
        <time>2019-12-30T18:06:46Z</time>
      </trkpt>
      <trkpt lat="61.302227279184" lon="12.237754797583">
        <ele>471.6</ele>
        <time>2019-12-30T18:06:52Z</time>
      </trkpt>
      <trkpt lat="61.302254520359" lon="12.237504011135">
        <ele>472.8</ele>
        <time>2019-12-30T18:06:58Z</time>
      </trkpt>
      <trkpt lat="61.30226198025" lon="12.237298654585">
        <ele>473.8</ele>
        <time>2019-12-30T18:07:03Z</time>
      </trkpt>
      <trkpt lat="61.302265249191" lon="12.237153312439">
        <ele>474.6</ele>
        <time>2019-12-30T18:07:08Z</time>
      </trkpt>
      <trkpt lat="61.302275726566" lon="12.237080138452">
        <ele>474.8</ele>
        <time>2019-12-30T18:07:10Z</time>
      </trkpt>
      <trkpt lat="61.302322497568" lon="12.236877631748">
        <ele>476</ele>
        <time>2019-12-30T18:07:15Z</time>
      </trkpt>
      <trkpt lat="61.302389217492" lon="12.236684596591">
        <ele>477.2</ele>
        <time>2019-12-30T18:07:20Z</time>
      </trkpt>
      <trkpt lat="61.30245979309" lon="12.236534057667">
        <ele>478.4</ele>
        <time>2019-12-30T18:07:24Z</time>
      </trkpt>
      <trkpt lat="61.302592813843" lon="12.236284696142">
        <ele>479.4</ele>
        <time>2019-12-30T18:07:31Z</time>
      </trkpt>
      <trkpt lat="61.302752824314" lon="12.236190567405">
        <ele>480.6</ele>
        <time>2019-12-30T18:07:37Z</time>
      </trkpt>
      <trkpt lat="61.303186000906" lon="12.236478904765">
        <ele>480.4</ele>
        <time>2019-12-30T18:07:49Z</time>
      </trkpt>
      <trkpt lat="61.303311645587" lon="12.236544870318">
        <ele>479.2</ele>
        <time>2019-12-30T18:07:51Z</time>
      </trkpt>
      <trkpt lat="61.303482133433" lon="12.236646626584">
        <ele>477.2</ele>
        <time>2019-12-30T18:07:53Z</time>
      </trkpt>
      <trkpt lat="61.303647173044" lon="12.236823317036">
        <ele>476</ele>
        <time>2019-12-30T18:07:55Z</time>
      </trkpt>
      <trkpt lat="61.30382269003" lon="12.237025320826">
        <ele>474.4</ele>
        <time>2019-12-30T18:07:57Z</time>
      </trkpt>
      <trkpt lat="61.30391992007" lon="12.237123221418">
        <ele>473.2</ele>
        <time>2019-12-30T18:07:58Z</time>
      </trkpt>
      <trkpt lat="61.304019999956" lon="12.237233191946">
        <ele>472.2</ele>
        <time>2019-12-30T18:07:59Z</time>
      </trkpt>
      <trkpt lat="61.304108345182" lon="12.237336373135">
        <ele>470.6</ele>
        <time>2019-12-30T18:08:00Z</time>
      </trkpt>
      <trkpt lat="61.304192834734" lon="12.237451540441">
        <ele>468</ele>
        <time>2019-12-30T18:08:01Z</time>
      </trkpt>
      <trkpt lat="61.304278078657" lon="12.237554470173">
        <ele>464.8</ele>
        <time>2019-12-30T18:08:02Z</time>
      </trkpt>
      <trkpt lat="61.304377487991" lon="12.237639546458">
        <ele>462.2</ele>
        <time>2019-12-30T18:08:03Z</time>
      </trkpt>
      <trkpt lat="61.304467844873" lon="12.237731076806">
        <ele>461</ele>
        <time>2019-12-30T18:08:04Z</time>
      </trkpt>
      <trkpt lat="61.304627520068" lon="12.237858314048">
        <ele>461</ele>
        <time>2019-12-30T18:08:06Z</time>
      </trkpt>
      <trkpt lat="61.304754673491" lon="12.237873569106">
        <ele>462.4</ele>
        <time>2019-12-30T18:08:08Z</time>
      </trkpt>
      <trkpt lat="61.304805551624" lon="12.237885555223">
        <ele>462.8</ele>
        <time>2019-12-30T18:08:09Z</time>
      </trkpt>
      <trkpt lat="61.304912923763" lon="12.237981192702">
        <ele>463</ele>
        <time>2019-12-30T18:08:11Z</time>
      </trkpt>
      <trkpt lat="61.304885850226" lon="12.238233068797">
        <ele>463.2</ele>
        <time>2019-12-30T18:08:15Z</time>
      </trkpt>
      <trkpt lat="61.304662221134" lon="12.23838788249">
        <ele>461</ele>
        <time>2019-12-30T18:08:19Z</time>
      </trkpt>
      <trkpt lat="61.304609079888" lon="12.238408250507">
        <ele>460</ele>
        <time>2019-12-30T18:08:20Z</time>
      </trkpt>
      <trkpt lat="61.30446641995" lon="12.23838033878">
        <ele>459</ele>
        <time>2019-12-30T18:08:23Z</time>
      </trkpt>
      <trkpt lat="61.304360305096" lon="12.238341614402">
        <ele>459.6</ele>
        <time>2019-12-30T18:08:25Z</time>
      </trkpt>
      <trkpt lat="61.304168946319" lon="12.238316384883">
        <ele>461.2</ele>
        <time>2019-12-30T18:08:28Z</time>
      </trkpt>
      <trkpt lat="61.304126533905" lon="12.238300626911">
        <ele>461.4</ele>
        <time>2019-12-30T18:08:29Z</time>
      </trkpt>
      <trkpt lat="61.304093509219" lon="12.23827891779">
        <ele>461.8</ele>
        <time>2019-12-30T18:08:30Z</time>
      </trkpt>
      <trkpt lat="61.304067106234" lon="12.238267853682">
        <ele>462.2</ele>
        <time>2019-12-30T18:08:31Z</time>
      </trkpt>
      <trkpt lat="61.303838699459" lon="12.238054953422">
        <ele>463.2</ele>
        <time>2019-12-30T18:08:39Z</time>
      </trkpt>
      <trkpt lat="61.303790503534" lon="12.238073142145">
        <ele>463.6</ele>
        <time>2019-12-30T18:08:40Z</time>
      </trkpt>
      <trkpt lat="61.303625044828" lon="12.238261483438">
        <ele>464.4</ele>
        <time>2019-12-30T18:08:44Z</time>
      </trkpt>
      <trkpt lat="61.303498059043" lon="12.238813012458">
        <ele>463.6</ele>
        <time>2019-12-30T18:08:50Z</time>
      </trkpt>
      <trkpt lat="61.303464615262" lon="12.238927090117">
        <ele>463.2</ele>
        <time>2019-12-30T18:08:51Z</time>
      </trkpt>
      <trkpt lat="61.303428237816" lon="12.239031193315">
        <ele>462.8</ele>
        <time>2019-12-30T18:08:52Z</time>
      </trkpt>
      <trkpt lat="61.303388172334" lon="12.239132279029">
        <ele>462</ele>
        <time>2019-12-30T18:08:53Z</time>
      </trkpt>
      <trkpt lat="61.303300330022" lon="12.239352806818">
        <ele>460.2</ele>
        <time>2019-12-30T18:08:55Z</time>
      </trkpt>
      <trkpt lat="61.303256744142" lon="12.239457915844">
        <ele>459.2</ele>
        <time>2019-12-30T18:08:56Z</time>
      </trkpt>
      <trkpt lat="61.303214331728" lon="12.239558247187">
        <ele>458</ele>
        <time>2019-12-30T18:08:57Z</time>
      </trkpt>
      <trkpt lat="61.303117939878" lon="12.239757065855">
        <ele>456.2</ele>
        <time>2019-12-30T18:08:59Z</time>
      </trkpt>
      <trkpt lat="61.303006795884" lon="12.239949095184">
        <ele>455.2</ele>
        <time>2019-12-30T18:09:01Z</time>
      </trkpt>
      <trkpt lat="61.30287972628" lon="12.240157804494">
        <ele>453.6</ele>
        <time>2019-12-30T18:09:03Z</time>
      </trkpt>
      <trkpt lat="61.302763553146" lon="12.240353102764">
        <ele>452.8</ele>
        <time>2019-12-30T18:09:05Z</time>
      </trkpt>
      <trkpt lat="61.302714267574" lon="12.240459552894">
        <ele>452.4</ele>
        <time>2019-12-30T18:09:06Z</time>
      </trkpt>
      <trkpt lat="61.302535900742" lon="12.240896249884">
        <ele>450.8</ele>
        <time>2019-12-30T18:09:10Z</time>
      </trkpt>
      <trkpt lat="61.302466582429" lon="12.241087943937">
        <ele>449.6</ele>
        <time>2019-12-30T18:09:12Z</time>
      </trkpt>
      <trkpt lat="61.30242710368" lon="12.241171008566">
        <ele>449.2</ele>
        <time>2019-12-30T18:09:13Z</time>
      </trkpt>
      <trkpt lat="61.302346972716" lon="12.241285756777">
        <ele>448.6</ele>
        <time>2019-12-30T18:09:15Z</time>
      </trkpt>
      <trkpt lat="61.301979258763" lon="12.241847595534">
        <ele>449.2</ele>
        <time>2019-12-30T18:09:26Z</time>
      </trkpt>
      <trkpt lat="61.301851434788" lon="12.242322178712">
        <ele>448.2</ele>
        <time>2019-12-30T18:09:32Z</time>
      </trkpt>
      <trkpt lat="61.30190323493" lon="12.242559135025">
        <ele>447.8</ele>
        <time>2019-12-30T18:09:34Z</time>
      </trkpt>
      <trkpt lat="61.301953777787" lon="12.242623508017">
        <ele>447.4</ele>
        <time>2019-12-30T18:09:35Z</time>
      </trkpt>
      <trkpt lat="61.302005913205" lon="12.242652090296">
        <ele>446.6</ele>
        <time>2019-12-30T18:09:36Z</time>
      </trkpt>
      <trkpt lat="61.302055617872" lon="12.242669273191">
        <ele>446</ele>
        <time>2019-12-30T18:09:37Z</time>
      </trkpt>
      <trkpt lat="61.302197188163" lon="12.242736496029">
        <ele>444.8</ele>
        <time>2019-12-30T18:09:40Z</time>
      </trkpt>
      <trkpt lat="61.302253179255" lon="12.242761809367">
        <ele>444.6</ele>
        <time>2019-12-30T18:09:41Z</time>
      </trkpt>
      <trkpt lat="61.30237010676" lon="12.242776226235">
        <ele>443.8</ele>
        <time>2019-12-30T18:09:43Z</time>
      </trkpt>
      <trkpt lat="61.302531542154" lon="12.242677990367">
        <ele>442.4</ele>
        <time>2019-12-30T18:09:46Z</time>
      </trkpt>
      <trkpt lat="61.302570266532" lon="12.242632979564">
        <ele>442.2</ele>
        <time>2019-12-30T18:09:47Z</time>
      </trkpt>
      <trkpt lat="61.302674788825" lon="12.242484284658">
        <ele>442.6</ele>
        <time>2019-12-30T18:09:50Z</time>
      </trkpt>
      <trkpt lat="61.302767744096" lon="12.241865197524">
        <ele>443.4</ele>
        <time>2019-12-30T18:10:02Z</time>
      </trkpt>
      <trkpt lat="61.302707729692" lon="12.24169035109">
        <ele>444.4</ele>
        <time>2019-12-30T18:10:06Z</time>
      </trkpt>
      <trkpt lat="61.302632963144" lon="12.241558503803">
        <ele>445.4</ele>
        <time>2019-12-30T18:10:10Z</time>
      </trkpt>
      <trkpt lat="61.302524920453" lon="12.241333952702">
        <ele>446.6</ele>
        <time>2019-12-30T18:10:16Z</time>
      </trkpt>
      <trkpt lat="61.302467169162" lon="12.241147539246">
        <ele>447.8</ele>
        <time>2019-12-30T18:10:21Z</time>
      </trkpt>
      <trkpt lat="61.302461888565" lon="12.241007477697">
        <ele>448.6</ele>
        <time>2019-12-30T18:10:25Z</time>
      </trkpt>
      <trkpt lat="61.302478568546" lon="12.240984343653">
        <ele>449</ele>
        <time>2019-12-30T18:10:26Z</time>
      </trkpt>
      <trkpt lat="61.302911745138" lon="12.240731797006">
        <ele>448.6</ele>
        <time>2019-12-30T18:10:40Z</time>
      </trkpt>
      <trkpt lat="61.303127579063" lon="12.241036730528">
        <ele>448</ele>
        <time>2019-12-30T18:10:49Z</time>
      </trkpt>
      <trkpt lat="61.303196478281" lon="12.241171260023">
        <ele>447.4</ele>
        <time>2019-12-30T18:10:51Z</time>
      </trkpt>
      <trkpt lat="61.30327032282" lon="12.2413039455">
        <ele>446.8</ele>
        <time>2019-12-30T18:10:53Z</time>
      </trkpt>
      <trkpt lat="61.303385909221" lon="12.241564874047">
        <ele>445.4</ele>
        <time>2019-12-30T18:10:56Z</time>
      </trkpt>
      <trkpt lat="61.303458412656" lon="12.241766961656">
        <ele>444.2</ele>
        <time>2019-12-30T18:10:58Z</time>
      </trkpt>
      <trkpt lat="61.3035150743" lon="12.241980951563">
        <ele>443</ele>
        <time>2019-12-30T18:11:00Z</time>
      </trkpt>
      <trkpt lat="61.303459837579" lon="12.242116905981">
        <ele>441.2</ele>
        <time>2019-12-30T18:11:02Z</time>
      </trkpt>
      <trkpt lat="61.303420107373" lon="12.242215560944">
        <ele>440</ele>
        <time>2019-12-30T18:11:04Z</time>
      </trkpt>
      <trkpt lat="61.303176948454" lon="12.242501216096">
        <ele>440</ele>
        <time>2019-12-30T18:11:13Z</time>
      </trkpt>
      <trkpt lat="61.302734887048" lon="12.242792906216">
        <ele>440.4</ele>
        <time>2019-12-30T18:11:24Z</time>
      </trkpt>
      <trkpt lat="61.30230472794" lon="12.243121309058">
        <ele>440.6</ele>
        <time>2019-12-30T18:11:37Z</time>
      </trkpt>
      <trkpt lat="61.30227120034" lon="12.243145532749">
        <ele>440.8</ele>
        <time>2019-12-30T18:11:38Z</time>
      </trkpt>
      <trkpt lat="61.302170785178" lon="12.243218287641">
        <ele>441.2</ele>
        <time>2019-12-30T18:11:41Z</time>
      </trkpt>
      <trkpt lat="61.301732914722" lon="12.243409981694">
        <ele>441.8</ele>
        <time>2019-12-30T18:11:53Z</time>
      </trkpt>
      <trkpt lat="61.301257577173" lon="12.243383913985">
        <ele>440</ele>
        <time>2019-12-30T18:12:03Z</time>
      </trkpt>
      <trkpt lat="61.301187672127" lon="12.243356756629">
        <ele>440.2</ele>
        <time>2019-12-30T18:12:05Z</time>
      </trkpt>
      <trkpt lat="61.301120952203" lon="12.243358265371">
        <ele>440.6</ele>
        <time>2019-12-30T18:12:08Z</time>
      </trkpt>
      <trkpt lat="61.301085245309" lon="12.243349548195">
        <ele>441</ele>
        <time>2019-12-30T18:12:10Z</time>
      </trkpt>
      <trkpt lat="61.300991200391" lon="12.243357594819">
        <ele>442.4</ele>
        <time>2019-12-30T18:12:15Z</time>
      </trkpt>
      <trkpt lat="61.300924648105" lon="12.243353236231">
        <ele>443.6</ele>
        <time>2019-12-30T18:12:18Z</time>
      </trkpt>
      <trkpt lat="61.300836302879" lon="12.243350218747">
        <ele>444.6</ele>
        <time>2019-12-30T18:12:22Z</time>
      </trkpt>
      <trkpt lat="61.300657265495" lon="12.24328458847">
        <ele>445.6</ele>
        <time>2019-12-30T18:12:29Z</time>
      </trkpt>
      <trkpt lat="61.3004137713" lon="12.243084680155">
        <ele>446.8</ele>
        <time>2019-12-30T18:12:39Z</time>
      </trkpt>
      <trkpt lat="61.300331293404" lon="12.242958700198">
        <ele>448</ele>
        <time>2019-12-30T18:12:44Z</time>
      </trkpt>
      <trkpt lat="61.300290222094" lon="12.24285543519">
        <ele>449.2</ele>
        <time>2019-12-30T18:12:48Z</time>
      </trkpt>
      <trkpt lat="61.300274715579" lon="12.242841940331">
        <ele>449.6</ele>
        <time>2019-12-30T18:12:49Z</time>
      </trkpt>
      <trkpt lat="61.300250743345" lon="12.242774885131">
        <ele>450.4</ele>
        <time>2019-12-30T18:12:52Z</time>
      </trkpt>
      <trkpt lat="61.30023607502" lon="12.242721995342">
        <ele>450.8</ele>
        <time>2019-12-30T18:12:54Z</time>
      </trkpt>
      <trkpt lat="61.300222915437" lon="12.242657035617">
        <ele>451.6</ele>
        <time>2019-12-30T18:12:56Z</time>
      </trkpt>
      <trkpt lat="61.300203553248" lon="12.242520829742">
        <ele>452.8</ele>
        <time>2019-12-30T18:13:00Z</time>
      </trkpt>
      <trkpt lat="61.300285109135" lon="12.242236096599">
        <ele>453.8</ele>
        <time>2019-12-30T18:13:06Z</time>
      </trkpt>
      <trkpt lat="61.300461296673" lon="12.242030823868">
        <ele>455</ele>
        <time>2019-12-30T18:13:13Z</time>
      </trkpt>
      <trkpt lat="61.300683919937" lon="12.2415218749">
        <ele>454.6</ele>
        <time>2019-12-30T18:13:21Z</time>
      </trkpt>
      <trkpt lat="61.300845606788" lon="12.24134669319">
        <ele>454</ele>
        <time>2019-12-30T18:13:27Z</time>
      </trkpt>
      <trkpt lat="61.300839068906" lon="12.241340239127">
        <ele>453.6</ele>
        <time>2019-12-30T18:13:29Z</time>
      </trkpt>
      <trkpt lat="61.300764302358" lon="12.241386255758">
        <ele>454</ele>
        <time>2019-12-30T18:13:33Z</time>
      </trkpt>
      <trkpt lat="61.300448388547" lon="12.242027387289">
        <ele>454.4</ele>
        <time>2019-12-30T18:13:47Z</time>
      </trkpt>
      <trkpt lat="61.300365072461" lon="12.242106009511">
        <ele>454.4</ele>
        <time>2019-12-30T18:13:50Z</time>
      </trkpt>
      <trkpt lat="61.300266082222" lon="12.241888331568">
        <ele>452.4</ele>
        <time>2019-12-30T18:13:54Z</time>
      </trkpt>
      <trkpt lat="61.30023188407" lon="12.241251307168">
        <ele>453.4</ele>
        <time>2019-12-30T18:14:03Z</time>
      </trkpt>
      <trkpt lat="61.300158290988" lon="12.240979985065">
        <ele>454.4</ele>
        <time>2019-12-30T18:14:09Z</time>
      </trkpt>
      <trkpt lat="61.299960645786" lon="12.240884179948">
        <ele>455.6</ele>
        <time>2019-12-30T18:14:16Z</time>
      </trkpt>
      <trkpt lat="61.299724443844" lon="12.240677901389">
        <ele>457</ele>
        <time>2019-12-30T18:14:26Z</time>
      </trkpt>
      <trkpt lat="61.299682953439" lon="12.240529709397">
        <ele>458</ele>
        <time>2019-12-30T18:14:31Z</time>
      </trkpt>
      <trkpt lat="61.299660154671" lon="12.240308343418">
        <ele>459</ele>
        <time>2019-12-30T18:14:37Z</time>
      </trkpt>
      <trkpt lat="61.299700303972" lon="12.24008437905">
        <ele>460.2</ele>
        <time>2019-12-30T18:14:42Z</time>
      </trkpt>
      <trkpt lat="61.299743638395" lon="12.239885308925">
        <ele>461.4</ele>
        <time>2019-12-30T18:14:47Z</time>
      </trkpt>
      <trkpt lat="61.299891746568" lon="12.239689256284">
        <ele>462.4</ele>
        <time>2019-12-30T18:14:55Z</time>
      </trkpt>
      <trkpt lat="61.300235907382" lon="12.239656566874">
        <ele>462.4</ele>
        <time>2019-12-30T18:15:04Z</time>
      </trkpt>
      <trkpt lat="61.300321151305" lon="12.239638713427">
        <ele>462</ele>
        <time>2019-12-30T18:15:06Z</time>
      </trkpt>
      <trkpt lat="61.300549306623" lon="12.239196149107">
        <ele>463.6</ele>
        <time>2019-12-30T18:15:18Z</time>
      </trkpt>
      <trkpt lat="61.30059901129" lon="12.239034881351">
        <ele>464.6</ele>
        <time>2019-12-30T18:15:24Z</time>
      </trkpt>
      <trkpt lat="61.300661121169" lon="12.238903285521">
        <ele>466</ele>
        <time>2019-12-30T18:15:29Z</time>
      </trkpt>
      <trkpt lat="61.300739072839" lon="12.238741347213">
        <ele>467.2</ele>
        <time>2019-12-30T18:15:34Z</time>
      </trkpt>
      <trkpt lat="61.300840242372" lon="12.238579995638">
        <ele>468.2</ele>
        <time>2019-12-30T18:15:39Z</time>
      </trkpt>
      <trkpt lat="61.301056746849" lon="12.238521741433">
        <ele>468.4</ele>
        <time>2019-12-30T18:15:45Z</time>
      </trkpt>
      <trkpt lat="61.301163448436" lon="12.238616540722">
        <ele>469.8</ele>
        <time>2019-12-30T18:15:47Z</time>
      </trkpt>
      <trkpt lat="61.301511548743" lon="12.239012417859">
        <ele>467</ele>
        <time>2019-12-30T18:15:53Z</time>
      </trkpt>
      <trkpt lat="61.301634427397" lon="12.239141080024">
        <ele>467.8</ele>
        <time>2019-12-30T18:15:55Z</time>
      </trkpt>
      <trkpt lat="61.301753618015" lon="12.239191455243">
        <ele>467.6</ele>
        <time>2019-12-30T18:15:57Z</time>
      </trkpt>
      <trkpt lat="61.301837520834" lon="12.239116856333">
        <ele>468</ele>
        <time>2019-12-30T18:15:59Z</time>
      </trkpt>
      <trkpt lat="61.301864342914" lon="12.239065642924">
        <ele>468.4</ele>
        <time>2019-12-30T18:16:00Z</time>
      </trkpt>
      <trkpt lat="61.301919076721" lon="12.238891131766">
        <ele>469.8</ele>
        <time>2019-12-30T18:16:04Z</time>
      </trkpt>
      <trkpt lat="61.30194179167" lon="12.238810581707">
        <ele>470.8</ele>
        <time>2019-12-30T18:16:06Z</time>
      </trkpt>
      <trkpt lat="61.301996190201" lon="12.2386049737">
        <ele>472</ele>
        <time>2019-12-30T18:16:11Z</time>
      </trkpt>
      <trkpt lat="61.302141699985" lon="12.238270703528">
        <ele>473.2</ele>
        <time>2019-12-30T18:16:20Z</time>
      </trkpt>
      <trkpt lat="61.302216047438" lon="12.238100215682">
        <ele>474.4</ele>
        <time>2019-12-30T18:16:25Z</time>
      </trkpt>
      <trkpt lat="61.302285281932" lon="12.237874826391">
        <ele>475.4</ele>
        <time>2019-12-30T18:16:31Z</time>
      </trkpt>
      <trkpt lat="61.302318390437" lon="12.237627811798">
        <ele>476.4</ele>
        <time>2019-12-30T18:16:37Z</time>
      </trkpt>
      <trkpt lat="61.302327023794" lon="12.237471154087">
        <ele>477.6</ele>
        <time>2019-12-30T18:16:41Z</time>
      </trkpt>
      <trkpt lat="61.302331047106" lon="12.237200502536">
        <ele>478.6</ele>
        <time>2019-12-30T18:16:48Z</time>
      </trkpt>
      <trkpt lat="61.30235250477" lon="12.237010652501">
        <ele>479.8</ele>
        <time>2019-12-30T18:16:53Z</time>
      </trkpt>
      <trkpt lat="61.302388044026" lon="12.236870674771">
        <ele>480.8</ele>
        <time>2019-12-30T18:16:57Z</time>
      </trkpt>
      <trkpt lat="61.302461804746" lon="12.236687530256">
        <ele>482</ele>
        <time>2019-12-30T18:17:02Z</time>
      </trkpt>
      <trkpt lat="61.302551826352" lon="12.236467170105">
        <ele>483.2</ele>
        <time>2019-12-30T18:17:08Z</time>
      </trkpt>
      <trkpt lat="61.302657857387" lon="12.236323588158">
        <ele>484.2</ele>
        <time>2019-12-30T18:17:13Z</time>
      </trkpt>
      <trkpt lat="61.303102433363" lon="12.236480078231">
        <ele>485</ele>
        <time>2019-12-30T18:17:25Z</time>
      </trkpt>
      <trkpt lat="61.303282476575" lon="12.236615445916">
        <ele>484.8</ele>
        <time>2019-12-30T18:17:29Z</time>
      </trkpt>
      <trkpt lat="61.303482301071" lon="12.2367190462">
        <ele>481.6</ele>
        <time>2019-12-30T18:17:32Z</time>
      </trkpt>
      <trkpt lat="61.303551619384" lon="12.236774869654">
        <ele>479.6</ele>
        <time>2019-12-30T18:17:33Z</time>
      </trkpt>
      <trkpt lat="61.303629403416" lon="12.236850558211">
        <ele>477.6</ele>
        <time>2019-12-30T18:17:34Z</time>
      </trkpt>
      <trkpt lat="61.303728477474" lon="12.236945189862">
        <ele>475.8</ele>
        <time>2019-12-30T18:17:35Z</time>
      </trkpt>
      <trkpt lat="61.303827048618" lon="12.237035295287">
        <ele>474</ele>
        <time>2019-12-30T18:17:36Z</time>
      </trkpt>
      <trkpt lat="61.30392662559" lon="12.237119868658">
        <ele>472.2</ele>
        <time>2019-12-30T18:17:37Z</time>
      </trkpt>
      <trkpt lat="61.304021508698" lon="12.2371968145">
        <ele>470</ele>
        <time>2019-12-30T18:17:38Z</time>
      </trkpt>
      <trkpt lat="61.304115469797" lon="12.237283483346">
        <ele>468.2</ele>
        <time>2019-12-30T18:17:39Z</time>
      </trkpt>
      <trkpt lat="61.304211107276" lon="12.237376773893">
        <ele>466.4</ele>
        <time>2019-12-30T18:17:40Z</time>
      </trkpt>
      <trkpt lat="61.304422331156" lon="12.237586405212">
        <ele>465</ele>
        <time>2019-12-30T18:17:42Z</time>
      </trkpt>
      <trkpt lat="61.304490643641" lon="12.237666619995">
        <ele>466.2</ele>
        <time>2019-12-30T18:17:44Z</time>
      </trkpt>
      <trkpt lat="61.304589298604" lon="12.237726969675">
        <ele>467.6</ele>
        <time>2019-12-30T18:17:45Z</time>
      </trkpt>
      <trkpt lat="61.304716703484" lon="12.237767873347">
        <ele>468.6</ele>
        <time>2019-12-30T18:17:46Z</time>
      </trkpt>
      <trkpt lat="61.304873696471" lon="12.237856134754">
        <ele>469</ele>
        <time>2019-12-30T18:17:48Z</time>
      </trkpt>
      <trkpt lat="61.304929855201" lon="12.238004326746">
        <ele>469</ele>
        <time>2019-12-30T18:17:50Z</time>
      </trkpt>
      <trkpt lat="61.304890124995" lon="12.23814313101">
        <ele>468.4</ele>
        <time>2019-12-30T18:17:52Z</time>
      </trkpt>
      <trkpt lat="61.304797002086" lon="12.238222926698">
        <ele>468.2</ele>
        <time>2019-12-30T18:17:54Z</time>
      </trkpt>
      <trkpt lat="61.304690887232" lon="12.238344380429">
        <ele>467.6</ele>
        <time>2019-12-30T18:17:56Z</time>
      </trkpt>
      <trkpt lat="61.304637326891" lon="12.238386373748">
        <ele>467.2</ele>
        <time>2019-12-30T18:17:57Z</time>
      </trkpt>
      <trkpt lat="61.304517214264" lon="12.238429540533">
        <ele>466.8</ele>
        <time>2019-12-30T18:17:59Z</time>
      </trkpt>
      <trkpt lat="61.304433143807" lon="12.238424679031">
        <ele>466.8</ele>
        <time>2019-12-30T18:18:01Z</time>
      </trkpt>
      <trkpt lat="61.304248155274" lon="12.238380841694">
        <ele>466.8</ele>
        <time>2019-12-30T18:18:04Z</time>
      </trkpt>
      <trkpt lat="61.304099376549" lon="12.238348655198">
        <ele>466.8</ele>
        <time>2019-12-30T18:18:07Z</time>
      </trkpt>
      <trkpt lat="61.304029136227" lon="12.238335830891">
        <ele>466.4</ele>
        <time>2019-12-30T18:18:09Z</time>
      </trkpt>
      <trkpt lat="61.303831742482" lon="12.238092755791">
        <ele>467</ele>
        <time>2019-12-30T18:18:17Z</time>
      </trkpt>
      <trkpt lat="61.30382101365" lon="12.238043973133">
        <ele>467.4</ele>
        <time>2019-12-30T18:18:18Z</time>
      </trkpt>
      <trkpt lat="61.303806512963" lon="12.237848423406">
        <ele>467.6</ele>
        <time>2019-12-30T18:18:21Z</time>
      </trkpt>
      <trkpt lat="61.303766363662" lon="12.23768631746">
        <ele>468.4</ele>
        <time>2019-12-30T18:18:26Z</time>
      </trkpt>
      <trkpt lat="61.303720179393" lon="12.237569054679">
        <ele>469.6</ele>
        <time>2019-12-30T18:18:31Z</time>
      </trkpt>
      <trkpt lat="61.303698721729" lon="12.237458078323">
        <ele>470.8</ele>
        <time>2019-12-30T18:18:34Z</time>
      </trkpt>
      <trkpt lat="61.303657063686" lon="12.237367553803">
        <ele>472</ele>
        <time>2019-12-30T18:18:38Z</time>
      </trkpt>
      <trkpt lat="61.303614651272" lon="12.237276023455">
        <ele>473.2</ele>
        <time>2019-12-30T18:18:42Z</time>
      </trkpt>
      <trkpt lat="61.303525635494" lon="12.237190528075">
        <ele>474.4</ele>
        <time>2019-12-30T18:18:47Z</time>
      </trkpt>
      <trkpt lat="61.303453299697" lon="12.237163705995">
        <ele>475.6</ele>
        <time>2019-12-30T18:18:51Z</time>
      </trkpt>
      <trkpt lat="61.30334324535" lon="12.237166052927">
        <ele>476.6</ele>
        <time>2019-12-30T18:18:58Z</time>
      </trkpt>
      <trkpt lat="61.303252134097" lon="12.237160101778">
        <ele>477.6</ele>
        <time>2019-12-30T18:19:02Z</time>
      </trkpt>
      <trkpt lat="61.302909314387" lon="12.237537790192">
        <ele>477.6</ele>
        <time>2019-12-30T18:19:14Z</time>
      </trkpt>
      <trkpt lat="61.302832368545" lon="12.237781116749">
        <ele>477.2</ele>
        <time>2019-12-30T18:19:17Z</time>
      </trkpt>
      <trkpt lat="61.30269448629" lon="12.238180179008">
        <ele>476.6</ele>
        <time>2019-12-30T18:19:21Z</time>
      </trkpt>
      <trkpt lat="61.302616618439" lon="12.238404981566">
        <ele>475.4</ele>
        <time>2019-12-30T18:19:23Z</time>
      </trkpt>
      <trkpt lat="61.302551239619" lon="12.238594580144">
        <ele>474.4</ele>
        <time>2019-12-30T18:19:25Z</time>
      </trkpt>
      <trkpt lat="61.302474964329" lon="12.238776048279">
        <ele>473.4</ele>
        <time>2019-12-30T18:19:27Z</time>
      </trkpt>
      <trkpt lat="61.302435569399" lon="12.238859532003">
        <ele>472.8</ele>
        <time>2019-12-30T18:19:28Z</time>
      </trkpt>
      <trkpt lat="61.302392486433" lon="12.238934298551">
        <ele>472</ele>
        <time>2019-12-30T18:19:29Z</time>
      </trkpt>
      <trkpt lat="61.302341775938" lon="12.238996576068">
        <ele>471.2</ele>
        <time>2019-12-30T18:19:30Z</time>
      </trkpt>
      <trkpt lat="61.302284443742" lon="12.238987607435">
        <ele>470.4</ele>
        <time>2019-12-30T18:19:31Z</time>
      </trkpt>
      <trkpt lat="61.30218486677" lon="12.23902742146">
        <ele>469.2</ele>
        <time>2019-12-30T18:19:33Z</time>
      </trkpt>
      <trkpt lat="61.302117392475" lon="12.239151557399">
        <ele>468.6</ele>
        <time>2019-12-30T18:19:35Z</time>
      </trkpt>
      <trkpt lat="61.302057126614" lon="12.239323973082">
        <ele>468.2</ele>
        <time>2019-12-30T18:19:37Z</time>
      </trkpt>
      <trkpt lat="61.302037429149" lon="12.239497394593">
        <ele>467.4</ele>
        <time>2019-12-30T18:19:39Z</time>
      </trkpt>
      <trkpt lat="61.302046481601" lon="12.239584314896">
        <ele>467</ele>
        <time>2019-12-30T18:19:40Z</time>
      </trkpt>
      <trkpt lat="61.302096940639" lon="12.239730411413">
        <ele>466.2</ele>
        <time>2019-12-30T18:19:42Z</time>
      </trkpt>
      <trkpt lat="61.302126780203" lon="12.239781708641">
        <ele>465.8</ele>
        <time>2019-12-30T18:19:43Z</time>
      </trkpt>
      <trkpt lat="61.302155865396" lon="12.239818589001">
        <ele>465.2</ele>
        <time>2019-12-30T18:19:44Z</time>
      </trkpt>
      <trkpt lat="61.302183274209" lon="12.239842477416">
        <ele>464.6</ele>
        <time>2019-12-30T18:19:45Z</time>
      </trkpt>
      <trkpt lat="61.30219995419" lon="12.23986142051">
        <ele>464</ele>
        <time>2019-12-30T18:19:47Z</time>
      </trkpt>
      <trkpt lat="61.302197104344" lon="12.239858486845">
        <ele>463.6</ele>
        <time>2019-12-30T18:19:48Z</time>
      </trkpt>
      <trkpt lat="61.302262399345" lon="12.239925625864">
        <ele>463</ele>
        <time>2019-12-30T18:20:06Z</time>
      </trkpt>
      <trkpt lat="61.302348230001" lon="12.239994273625">
        <ele>462.6</ele>
        <time>2019-12-30T18:20:09Z</time>
      </trkpt>
      <trkpt lat="61.302448142249" lon="12.240071722381">
        <ele>461.4</ele>
        <time>2019-12-30T18:20:12Z</time>
      </trkpt>
      <trkpt lat="61.302520310408" lon="12.240099634108">
        <ele>460.4</ele>
        <time>2019-12-30T18:20:14Z</time>
      </trkpt>
      <trkpt lat="61.302595663689" lon="12.240095862253">
        <ele>459.2</ele>
        <time>2019-12-30T18:20:16Z</time>
      </trkpt>
      <trkpt lat="61.302745448242" lon="12.239586997104">
        <ele>460.6</ele>
        <time>2019-12-30T18:20:29Z</time>
      </trkpt>
      <trkpt lat="61.30273052846" lon="12.239484737924">
        <ele>461.6</ele>
        <time>2019-12-30T18:20:32Z</time>
      </trkpt>
      <trkpt lat="61.302718123248" lon="12.239388178436">
        <ele>462.6</ele>
        <time>2019-12-30T18:20:36Z</time>
      </trkpt>
      <trkpt lat="61.302687948408" lon="12.23927971665">
        <ele>464</ele>
        <time>2019-12-30T18:20:40Z</time>
      </trkpt>
      <trkpt lat="61.302659366129" lon="12.239187012836">
        <ele>465</ele>
        <time>2019-12-30T18:20:43Z</time>
      </trkpt>
      <trkpt lat="61.302637992284" lon="12.239087687321">
        <ele>466</ele>
        <time>2019-12-30T18:20:47Z</time>
      </trkpt>
      <trkpt lat="61.302609242367" lon="12.238988697082">
        <ele>467.2</ele>
        <time>2019-12-30T18:20:52Z</time>
      </trkpt>
      <trkpt lat="61.302593484395" lon="12.238920300778">
        <ele>468.4</ele>
        <time>2019-12-30T18:20:55Z</time>
      </trkpt>
      <trkpt lat="61.302575044215" lon="12.238830111534">
        <ele>469.4</ele>
        <time>2019-12-30T18:20:59Z</time>
      </trkpt>
      <trkpt lat="61.302568003419" lon="12.238756183176">
        <ele>470.2</ele>
        <time>2019-12-30T18:21:02Z</time>
      </trkpt>
      <trkpt lat="61.302561716994" lon="12.238733803503">
        <ele>470.6</ele>
        <time>2019-12-30T18:21:03Z</time>
      </trkpt>
      <trkpt lat="61.302540007873" lon="12.238631125228">
        <ele>472</ele>
        <time>2019-12-30T18:21:07Z</time>
      </trkpt>
      <trkpt lat="61.302545707565" lon="12.238598854913">
        <ele>472.4</ele>
        <time>2019-12-30T18:21:08Z</time>
      </trkpt>
      <trkpt lat="61.302565656487" lon="12.238525429469">
        <ele>473</ele>
        <time>2019-12-30T18:21:10Z</time>
      </trkpt>
      <trkpt lat="61.302644613985" lon="12.238312948304">
        <ele>474.2</ele>
        <time>2019-12-30T18:21:16Z</time>
      </trkpt>
      <trkpt lat="61.302695659756" lon="12.238187135985">
        <ele>475.2</ele>
        <time>2019-12-30T18:21:21Z</time>
      </trkpt>
      <trkpt lat="61.302754249237" lon="12.238066101349">
        <ele>476.4</ele>
        <time>2019-12-30T18:21:26Z</time>
      </trkpt>
      <trkpt lat="61.302790710502" lon="12.237998291778">
        <ele>477.6</ele>
        <time>2019-12-30T18:21:29Z</time>
      </trkpt>
      <trkpt lat="61.30286715343" lon="12.237874239658">
        <ele>478.6</ele>
        <time>2019-12-30T18:21:34Z</time>
      </trkpt>
      <trkpt lat="61.30298282365" lon="12.237687407107">
        <ele>479.6</ele>
        <time>2019-12-30T18:21:40Z</time>
      </trkpt>
      <trkpt lat="61.30310519939" lon="12.237475177399">
        <ele>480.8</ele>
        <time>2019-12-30T18:21:46Z</time>
      </trkpt>
      <trkpt lat="61.303315333623" lon="12.237239729828">
        <ele>480</ele>
        <time>2019-12-30T18:21:52Z</time>
      </trkpt>
      <trkpt lat="61.30339437494" lon="12.237208465341">
        <ele>479</ele>
        <time>2019-12-30T18:21:54Z</time>
      </trkpt>
      <trkpt lat="61.303519013793" lon="12.237222882209">
        <ele>477.8</ele>
        <time>2019-12-30T18:21:57Z</time>
      </trkpt>
      <trkpt lat="61.303557067619" lon="12.237265294623">
        <ele>477.2</ele>
        <time>2019-12-30T18:21:58Z</time>
      </trkpt>
      <trkpt lat="61.303590343762" lon="12.237313825824">
        <ele>476.6</ele>
        <time>2019-12-30T18:21:59Z</time>
      </trkpt>
      <trkpt lat="61.303613393987" lon="12.237372331486">
        <ele>476</ele>
        <time>2019-12-30T18:22:00Z</time>
      </trkpt>
      <trkpt lat="61.303630409244" lon="12.237441901256">
        <ele>475.4</ele>
        <time>2019-12-30T18:22:01Z</time>
      </trkpt>
      <trkpt lat="61.30361649529" lon="12.237780362378">
        <ele>474</ele>
        <time>2019-12-30T18:22:04Z</time>
      </trkpt>
      <trkpt lat="61.303566790623" lon="12.238105496279">
        <ele>471.8</ele>
        <time>2019-12-30T18:22:06Z</time>
      </trkpt>
      <trkpt lat="61.303537621611" lon="12.238260980524">
        <ele>470.6</ele>
        <time>2019-12-30T18:22:07Z</time>
      </trkpt>
      <trkpt lat="61.303510128979" lon="12.238408334326">
        <ele>469.2</ele>
        <time>2019-12-30T18:22:08Z</time>
      </trkpt>
      <trkpt lat="61.303485821469" lon="12.238558789431">
        <ele>467.8</ele>
        <time>2019-12-30T18:22:09Z</time>
      </trkpt>
      <trkpt lat="61.303460927226" lon="12.238714273676">
        <ele>466.4</ele>
        <time>2019-12-30T18:22:10Z</time>
      </trkpt>
      <trkpt lat="61.303430836205" lon="12.238873026862">
        <ele>465.6</ele>
        <time>2019-12-30T18:22:11Z</time>
      </trkpt>
      <trkpt lat="61.30339102218" lon="12.239016776447">
        <ele>465.2</ele>
        <time>2019-12-30T18:22:12Z</time>
      </trkpt>
      <trkpt lat="61.303298486004" lon="12.239263874859">
        <ele>463.4</ele>
        <time>2019-12-30T18:22:14Z</time>
      </trkpt>
      <trkpt lat="61.303195472453" lon="12.239508458701">
        <ele>461.8</ele>
        <time>2019-12-30T18:22:16Z</time>
      </trkpt>
      <trkpt lat="61.303021967123" lon="12.239864437994">
        <ele>460.8</ele>
        <time>2019-12-30T18:22:19Z</time>
      </trkpt>
      <trkpt lat="61.302890203655" lon="12.240071470924">
        <ele>459.6</ele>
        <time>2019-12-30T18:22:21Z</time>
      </trkpt>
      <trkpt lat="61.302822058808" lon="12.240164342376">
        <ele>458.4</ele>
        <time>2019-12-30T18:22:22Z</time>
      </trkpt>
      <trkpt lat="61.302761038576" lon="12.240262997339">
        <ele>457.6</ele>
        <time>2019-12-30T18:22:23Z</time>
      </trkpt>
      <trkpt lat="61.302708064968" lon="12.240375985351">
        <ele>457.2</ele>
        <time>2019-12-30T18:22:24Z</time>
      </trkpt>
      <trkpt lat="61.302661461604" lon="12.240487213164">
        <ele>456.6</ele>
        <time>2019-12-30T18:22:25Z</time>
      </trkpt>
      <trkpt lat="61.302613098041" lon="12.240611432922">
        <ele>456.2</ele>
        <time>2019-12-30T18:22:26Z</time>
      </trkpt>
      <trkpt lat="61.302532212706" lon="12.240875881867">
        <ele>456</ele>
        <time>2019-12-30T18:22:28Z</time>
      </trkpt>
      <trkpt lat="61.302526932109" lon="12.241144102667">
        <ele>455.2</ele>
        <time>2019-12-30T18:22:30Z</time>
      </trkpt>
      <trkpt lat="61.302596501879" lon="12.241380472247">
        <ele>454.2</ele>
        <time>2019-12-30T18:22:32Z</time>
      </trkpt>
      <trkpt lat="61.302644781623" lon="12.241477953744">
        <ele>453.6</ele>
        <time>2019-12-30T18:22:33Z</time>
      </trkpt>
      <trkpt lat="61.302694402471" lon="12.24156043164">
        <ele>453</ele>
        <time>2019-12-30T18:22:34Z</time>
      </trkpt>
      <trkpt lat="61.302743268948" lon="12.241635449645">
        <ele>452.2</ele>
        <time>2019-12-30T18:22:35Z</time>
      </trkpt>
      <trkpt lat="61.302785429905" lon="12.241720609749">
        <ele>451.2</ele>
        <time>2019-12-30T18:22:36Z</time>
      </trkpt>
      <trkpt lat="61.302820047152" lon="12.241821611644">
        <ele>450.6</ele>
        <time>2019-12-30T18:22:37Z</time>
      </trkpt>
      <trkpt lat="61.302842426825" lon="12.241946166678">
        <ele>450</ele>
        <time>2019-12-30T18:22:38Z</time>
      </trkpt>
      <trkpt lat="61.3028445223" lon="12.242093855756">
        <ele>449.4</ele>
        <time>2019-12-30T18:22:39Z</time>
      </trkpt>
      <trkpt lat="61.302824741016" lon="12.24224355649">
        <ele>448.6</ele>
        <time>2019-12-30T18:22:40Z</time>
      </trkpt>
      <trkpt lat="61.302784340258" lon="12.242368195343">
        <ele>448</ele>
        <time>2019-12-30T18:22:41Z</time>
      </trkpt>
      <trkpt lat="61.302730612279" lon="12.242460144786">
        <ele>447.6</ele>
        <time>2019-12-30T18:22:42Z</time>
      </trkpt>
      <trkpt lat="61.30242458911" lon="12.242737166581">
        <ele>448.8</ele>
        <time>2019-12-30T18:22:48Z</time>
      </trkpt>
      <trkpt lat="61.302328951631" lon="12.242744877929">
        <ele>448.8</ele>
        <time>2019-12-30T18:22:50Z</time>
      </trkpt>
      <trkpt lat="61.30222007075" lon="12.242700789135">
        <ele>449</ele>
        <time>2019-12-30T18:22:53Z</time>
      </trkpt>
      <trkpt lat="61.302009852698" lon="12.242632979564">
        <ele>450.2</ele>
        <time>2019-12-30T18:23:00Z</time>
      </trkpt>
      <trkpt lat="61.301672229766" lon="12.242464084279">
        <ele>450.4</ele>
        <time>2019-12-30T18:23:09Z</time>
      </trkpt>
      <trkpt lat="61.301561421048" lon="12.24237012318">
        <ele>450.4</ele>
        <time>2019-12-30T18:23:12Z</time>
      </trkpt>
      <trkpt lat="61.301449438864" lon="12.242166862105">
        <ele>451.2</ele>
        <time>2019-12-30T18:23:17Z</time>
      </trkpt>
      <trkpt lat="61.301347598779" lon="12.24187475289">
        <ele>452.4</ele>
        <time>2019-12-30T18:23:25Z</time>
      </trkpt>
      <trkpt lat="61.301302671795" lon="12.241697810981">
        <ele>453.8</ele>
        <time>2019-12-30T18:23:30Z</time>
      </trkpt>
      <trkpt lat="61.30127123967" lon="12.241541572365">
        <ele>454.8</ele>
        <time>2019-12-30T18:23:35Z</time>
      </trkpt>
      <trkpt lat="61.301256403707" lon="12.241424728679">
        <ele>456.2</ele>
        <time>2019-12-30T18:23:39Z</time>
      </trkpt>
      <trkpt lat="61.301223881935" lon="12.241269412072">
        <ele>457.4</ele>
        <time>2019-12-30T18:23:45Z</time>
      </trkpt>
      <trkpt lat="61.301193120362" lon="12.241201937777">
        <ele>458.4</ele>
        <time>2019-12-30T18:23:48Z</time>
      </trkpt>
      <trkpt lat="61.301175602191" lon="12.241187520909">
        <ele>458.6</ele>
        <time>2019-12-30T18:23:49Z</time>
      </trkpt>
      <trkpt lat="61.301058758505" lon="12.241179306647">
        <ele>459.8</ele>
        <time>2019-12-30T18:23:54Z</time>
      </trkpt>
      <trkpt lat="61.300663468101" lon="12.241660930621">
        <ele>460</ele>
        <time>2019-12-30T18:24:07Z</time>
      </trkpt>
      <trkpt lat="61.300558861989" lon="12.242126293709">
        <ele>460.2</ele>
        <time>2019-12-30T18:24:14Z</time>
      </trkpt>
      <trkpt lat="61.300709987646" lon="12.242384456229">
        <ele>460.6</ele>
        <time>2019-12-30T18:24:19Z</time>
      </trkpt>
      <trkpt lat="61.301166801196" lon="12.242686372267">
        <ele>458.8</ele>
        <time>2019-12-30T18:24:24Z</time>
      </trkpt>
      <trkpt lat="61.301269228014" lon="12.24275569058">
        <ele>457.6</ele>
        <time>2019-12-30T18:24:25Z</time>
      </trkpt>
      <trkpt lat="61.301374588497" lon="12.242819728296">
        <ele>456</ele>
        <time>2019-12-30T18:24:26Z</time>
      </trkpt>
      <trkpt lat="61.301478188781" lon="12.242878988329">
        <ele>454.4</ele>
        <time>2019-12-30T18:24:27Z</time>
      </trkpt>
      <trkpt lat="61.301574999726" lon="12.242942104036">
        <ele>453</ele>
        <time>2019-12-30T18:24:28Z</time>
      </trkpt>
      <trkpt lat="61.3016626744" lon="12.243001950802">
        <ele>451.8</ele>
        <time>2019-12-30T18:24:29Z</time>
      </trkpt>
      <trkpt lat="61.301811285487" lon="12.243098258833">
        <ele>450</ele>
        <time>2019-12-30T18:24:31Z</time>
      </trkpt>
      <trkpt lat="61.30195687909" lon="12.243172606286">
        <ele>448.2</ele>
        <time>2019-12-30T18:24:33Z</time>
      </trkpt>
      <trkpt lat="61.302098030286" lon="12.243203703135">
        <ele>447</ele>
        <time>2019-12-30T18:24:35Z</time>
      </trkpt>
      <trkpt lat="61.302238930025" lon="12.243184676222">
        <ele>447.2</ele>
        <time>2019-12-30T18:24:37Z</time>
      </trkpt>
      <trkpt lat="61.302380500316" lon="12.243138575772">
        <ele>448.2</ele>
        <time>2019-12-30T18:24:39Z</time>
      </trkpt>
      <trkpt lat="61.302748633364" lon="12.242911510101">
        <ele>447</ele>
        <time>2019-12-30T18:24:45Z</time>
      </trkpt>
      <trkpt lat="61.303051639049" lon="12.242638176342">
        <ele>446</ele>
        <time>2019-12-30T18:24:51Z</time>
      </trkpt>
      <trkpt lat="61.303174601522" lon="12.242515297688">
        <ele>446</ele>
        <time>2019-12-30T18:24:54Z</time>
      </trkpt>
      <trkpt lat="61.303237214315" lon="12.242444051538">
        <ele>446</ele>
        <time>2019-12-30T18:24:56Z</time>
      </trkpt>
      <trkpt lat="61.303415664966" lon="12.242229558717">
        <ele>445.6</ele>
        <time>2019-12-30T18:25:11Z</time>
      </trkpt>
      <trkpt lat="61.303129171624" lon="12.242602469448">
        <ele>446.2</ele>
        <time>2019-12-30T18:25:20Z</time>
      </trkpt>
      <trkpt lat="61.303004448952" lon="12.242727359758">
        <ele>446.4</ele>
        <time>2019-12-30T18:25:23Z</time>
      </trkpt>
      <trkpt lat="61.302872014932" lon="12.242823835427">
        <ele>446.8</ele>
        <time>2019-12-30T18:25:26Z</time>
      </trkpt>
      <trkpt lat="61.30283027307" lon="12.242855016095">
        <ele>447</ele>
        <time>2019-12-30T18:25:27Z</time>
      </trkpt>
      <trkpt lat="61.30239525246" lon="12.243175539951">
        <ele>447.2</ele>
        <time>2019-12-30T18:25:39Z</time>
      </trkpt>
      <trkpt lat="61.301951514674" lon="12.243352398041">
        <ele>447.8</ele>
        <time>2019-12-30T18:25:52Z</time>
      </trkpt>
      <trkpt lat="61.301759736802" lon="12.243418195956">
        <ele>447.4</ele>
        <time>2019-12-30T18:25:57Z</time>
      </trkpt>
      <trkpt lat="61.301434183806" lon="12.243442084371">
        <ele>446.2</ele>
        <time>2019-12-30T18:26:04Z</time>
      </trkpt>
      <trkpt lat="61.301255481698" lon="12.243383830166">
        <ele>446.2</ele>
        <time>2019-12-30T18:26:08Z</time>
      </trkpt>
      <trkpt lat="61.301059596695" lon="12.243396235378">
        <ele>448.2</ele>
        <time>2019-12-30T18:26:19Z</time>
      </trkpt>
      <trkpt lat="61.300991368029" lon="12.243383327252">
        <ele>449.2</ele>
        <time>2019-12-30T18:26:23Z</time>
      </trkpt>
      <trkpt lat="61.300874021429" lon="12.243371844049">
        <ele>450.4</ele>
        <time>2019-12-30T18:26:28Z</time>
      </trkpt>
      <trkpt lat="61.300764637634" lon="12.243335801879">
        <ele>451.6</ele>
        <time>2019-12-30T18:26:32Z</time>
      </trkpt>
      <trkpt lat="61.300526004941" lon="12.243171684277">
        <ele>452.6</ele>
        <time>2019-12-30T18:26:42Z</time>
      </trkpt>
      <trkpt lat="61.30049256116" lon="12.243114352081">
        <ele>452.8</ele>
        <time>2019-12-30T18:26:44Z</time>
      </trkpt>
      <trkpt lat="61.300429026358" lon="12.243016954403">
        <ele>453.8</ele>
        <time>2019-12-30T18:26:48Z</time>
      </trkpt>
      <trkpt lat="61.300379824605" lon="12.242882844003">
        <ele>454.8</ele>
        <time>2019-12-30T18:26:53Z</time>
      </trkpt>
      <trkpt lat="61.300344117711" lon="12.242791816569">
        <ele>456</ele>
        <time>2019-12-30T18:26:57Z</time>
      </trkpt>
      <trkpt lat="61.300329700843" lon="12.242722665894">
        <ele>457.2</ele>
        <time>2019-12-30T18:27:00Z</time>
      </trkpt>
      <trkpt lat="61.300291730836" lon="12.242596685937">
        <ele>458.2</ele>
        <time>2019-12-30T18:27:05Z</time>
      </trkpt>
      <trkpt lat="61.300266166041" lon="12.242533318773">
        <ele>458.6</ele>
        <time>2019-12-30T18:27:07Z</time>
      </trkpt>
      <trkpt lat="61.30025870615" lon="12.242460899157">
        <ele>459.2</ele>
        <time>2019-12-30T18:27:09Z</time>
      </trkpt>
      <trkpt lat="61.300259879616" lon="12.242328800413">
        <ele>460.2</ele>
        <time>2019-12-30T18:27:12Z</time>
      </trkpt>
      <trkpt lat="61.300249737517" lon="12.241944825574">
        <ele>460.4</ele>
        <time>2019-12-30T18:27:17Z</time>
      </trkpt>
      <trkpt lat="61.300237080848" lon="12.24173812792">
        <ele>459.8</ele>
        <time>2019-12-30T18:27:19Z</time>
      </trkpt>
      <trkpt lat="61.300207157465" lon="12.241077215105">
        <ele>460.6</ele>
        <time>2019-12-30T18:27:31Z</time>
      </trkpt>
      <trkpt lat="61.300138174428" lon="12.240979230694">
        <ele>461.4</ele>
        <time>2019-12-30T18:27:35Z</time>
      </trkpt>
      <trkpt lat="61.300003225838" lon="12.240887532708">
        <ele>462.6</ele>
        <time>2019-12-30T18:27:41Z</time>
      </trkpt>
      <trkpt lat="61.299740788549" lon="12.240699694329">
        <ele>463.6</ele>
        <time>2019-12-30T18:27:53Z</time>
      </trkpt>
      <trkpt lat="61.299682701982" lon="12.240616713519">
        <ele>464.8</ele>
        <time>2019-12-30T18:27:57Z</time>
      </trkpt>
      <trkpt lat="61.299658813567" lon="12.240377158817">
        <ele>466</ele>
        <time>2019-12-30T18:28:03Z</time>
      </trkpt>
      <trkpt lat="61.299695358651" lon="12.240098795918">
        <ele>467.2</ele>
        <time>2019-12-30T18:28:09Z</time>
      </trkpt>
      <trkpt lat="61.299763503498" lon="12.239857313379">
        <ele>468.2</ele>
        <time>2019-12-30T18:28:15Z</time>
      </trkpt>
      <trkpt lat="61.299940026312" lon="12.239698727831">
        <ele>469.2</ele>
        <time>2019-12-30T18:28:23Z</time>
      </trkpt>
      <trkpt lat="61.300328862653" lon="12.239614070641">
        <ele>468.6</ele>
        <time>2019-12-30T18:28:33Z</time>
      </trkpt>
      <trkpt lat="61.300576547798" lon="12.239120041455">
        <ele>470.6</ele>
        <time>2019-12-30T18:28:48Z</time>
      </trkpt>
      <trkpt lat="61.300587947182" lon="12.239091542995">
        <ele>470.6</ele>
        <time>2019-12-30T18:28:49Z</time>
      </trkpt>
      <trkpt lat="61.300619882221" lon="12.239000431742">
        <ele>471.8</ele>
        <time>2019-12-30T18:28:52Z</time>
      </trkpt>
      <trkpt lat="61.300685428679" lon="12.238823992747">
        <ele>473</ele>
        <time>2019-12-30T18:28:58Z</time>
      </trkpt>
      <trkpt lat="61.300805541306" lon="12.238626599002">
        <ele>474.2</ele>
        <time>2019-12-30T18:29:05Z</time>
      </trkpt>
      <trkpt lat="61.301079964712" lon="12.238593825773">
        <ele>475</ele>
        <time>2019-12-30T18:29:13Z</time>
      </trkpt>
      <trkpt lat="61.301466118845" lon="12.238974364033">
        <ele>473.2</ele>
        <time>2019-12-30T18:29:20Z</time>
      </trkpt>
      <trkpt lat="61.301574999726" lon="12.239112162469">
        <ele>472.2</ele>
        <time>2019-12-30T18:29:22Z</time>
      </trkpt>
      <trkpt lat="61.301689915575" lon="12.239208805776">
        <ele>471.6</ele>
        <time>2019-12-30T18:29:24Z</time>
      </trkpt>
      <trkpt lat="61.301792342393" lon="12.239196987297">
        <ele>471.4</ele>
        <time>2019-12-30T18:29:26Z</time>
      </trkpt>
      <trkpt lat="61.301896697048" lon="12.239105456949">
        <ele>471.4</ele>
        <time>2019-12-30T18:29:29Z</time>
      </trkpt>
      <trkpt lat="61.301948329552" lon="12.238810833164">
        <ele>470.4</ele>
        <time>2019-12-30T18:29:35Z</time>
      </trkpt>
      <trkpt lat="61.3019560409" lon="12.238762888696">
        <ele>472.4</ele>
        <time>2019-12-30T18:29:36Z</time>
      </trkpt>
      <trkpt lat="61.301985293731" lon="12.23864101587">
        <ele>474.2</ele>
        <time>2019-12-30T18:29:39Z</time>
      </trkpt>
      <trkpt lat="61.302275139833" lon="12.23798722767">
        <ele>475.4</ele>
        <time>2019-12-30T18:29:58Z</time>
      </trkpt>
      <trkpt lat="61.302311517279" lon="12.237837443117">
        <ele>476.4</ele>
        <time>2019-12-30T18:30:02Z</time>
      </trkpt>
      <trkpt lat="61.302332807305" lon="12.237583974461">
        <ele>477.6</ele>
        <time>2019-12-30T18:30:08Z</time>
      </trkpt>
      <trkpt lat="61.30233825554" lon="12.23742228761">
        <ele>476.4</ele>
        <time>2019-12-30T18:30:12Z</time>
      </trkpt>
      <trkpt lat="61.302353594417" lon="12.237133279698">
        <ele>477.2</ele>
        <time>2019-12-30T18:30:20Z</time>
      </trkpt>
      <trkpt lat="61.302365412896" lon="12.237060608625">
        <ele>477.6</ele>
        <time>2019-12-30T18:30:22Z</time>
      </trkpt>
      <trkpt lat="61.302381925239" lon="12.236926246768">
        <ele>478.6</ele>
        <time>2019-12-30T18:30:26Z</time>
      </trkpt>
      <trkpt lat="61.302417213038" lon="12.236777635681">
        <ele>479.6</ele>
        <time>2019-12-30T18:30:30Z</time>
      </trkpt>
      <trkpt lat="61.302431210811" lon="12.236745533004">
        <ele>479.8</ele>
        <time>2019-12-30T18:30:31Z</time>
      </trkpt>
      <trkpt lat="61.302507234644" lon="12.236521065722">
        <ele>480.8</ele>
        <time>2019-12-30T18:30:37Z</time>
      </trkpt>
      <trkpt lat="61.302592059472" lon="12.236360049423">
        <ele>481.8</ele>
        <time>2019-12-30T18:30:42Z</time>
      </trkpt>
      <trkpt lat="61.302977375415" lon="12.236366252029">
        <ele>483</ele>
        <time>2019-12-30T18:30:54Z</time>
      </trkpt>
      <trkpt lat="61.303420107373" lon="12.236604633265">
        <ele>482.6</ele>
        <time>2019-12-30T18:31:03Z</time>
      </trkpt>
      <trkpt lat="61.303508201142" lon="12.236662719832">
        <ele>481.8</ele>
        <time>2019-12-30T18:31:04Z</time>
      </trkpt>
      <trkpt lat="61.30359973149" lon="12.236736480552">
        <ele>480.2</ele>
        <time>2019-12-30T18:31:05Z</time>
      </trkpt>
      <trkpt lat="61.303686484155" lon="12.236820802466">
        <ele>478.2</ele>
        <time>2019-12-30T18:31:06Z</time>
      </trkpt>
      <trkpt lat="61.303767620947" lon="12.236925995311">
        <ele>476.2</ele>
        <time>2019-12-30T18:31:07Z</time>
      </trkpt>
      <trkpt lat="61.30385286487" lon="12.237028003034">
        <ele>473.8</ele>
        <time>2019-12-30T18:31:08Z</time>
      </trkpt>
      <trkpt lat="61.303940539544" lon="12.23713311206">
        <ele>471.6</ele>
        <time>2019-12-30T18:31:09Z</time>
      </trkpt>
      <trkpt lat="61.304034500643" lon="12.237258589103">
        <ele>469</ele>
        <time>2019-12-30T18:31:10Z</time>
      </trkpt>
      <trkpt lat="61.304146315189" lon="12.237377612083">
        <ele>466.4</ele>
        <time>2019-12-30T18:31:11Z</time>
      </trkpt>
      <trkpt lat="61.304262655961" lon="12.237483056385">
        <ele>464</ele>
        <time>2019-12-30T18:31:12Z</time>
      </trkpt>
      <trkpt lat="61.304372794127" lon="12.237581459891">
        <ele>461.8</ele>
        <time>2019-12-30T18:31:13Z</time>
      </trkpt>
      <trkpt lat="61.304478825162" lon="12.237640719924">
        <ele>460.8</ele>
        <time>2019-12-30T18:31:14Z</time>
      </trkpt>
      <trkpt lat="61.304780154467" lon="12.2378589846">
        <ele>461</ele>
        <time>2019-12-30T18:31:17Z</time>
      </trkpt>
      <trkpt lat="61.304862380906" lon="12.237880861359">
        <ele>462.8</ele>
        <time>2019-12-30T18:31:18Z</time>
      </trkpt>
      <trkpt lat="61.304935471074" lon="12.237886477232">
        <ele>464.8</ele>
        <time>2019-12-30T18:31:19Z</time>
      </trkpt>
      <trkpt lat="61.30499783241" lon="12.23792436342">
        <ele>465.8</ele>
        <time>2019-12-30T18:31:20Z</time>
      </trkpt>
      <trkpt lat="61.305031695286" lon="12.23800231509">
        <ele>466.4</ele>
        <time>2019-12-30T18:31:21Z</time>
      </trkpt>
      <trkpt lat="61.30497017214" lon="12.238230218951">
        <ele>466.6</ele>
        <time>2019-12-30T18:31:24Z</time>
      </trkpt>
      <trkpt lat="61.304864811657" lon="12.238313786494">
        <ele>466.8</ele>
        <time>2019-12-30T18:31:26Z</time>
      </trkpt>
      <trkpt lat="61.304606900594" lon="12.238438760623">
        <ele>466.8</ele>
        <time>2019-12-30T18:31:30Z</time>
      </trkpt>
      <trkpt lat="61.304506150156" lon="12.23845745226">
        <ele>465.6</ele>
        <time>2019-12-30T18:31:32Z</time>
      </trkpt>
      <trkpt lat="61.304307247669" lon="12.238453596586">
        <ele>464.4</ele>
        <time>2019-12-30T18:31:36Z</time>
      </trkpt>
      <trkpt lat="61.304140028764" lon="12.238395929114">
        <ele>463.8</ele>
        <time>2019-12-30T18:31:39Z</time>
      </trkpt>
      <trkpt lat="61.303914220378" lon="12.238182274483">
        <ele>465.4</ele>
        <time>2019-12-30T18:31:46Z</time>
      </trkpt>
      <trkpt lat="61.303828222084" lon="12.237813303245">
        <ele>466.6</ele>
        <time>2019-12-30T18:31:51Z</time>
      </trkpt>
      <trkpt lat="61.303762759445" lon="12.237589338877">
        <ele>467.6</ele>
        <time>2019-12-30T18:31:58Z</time>
      </trkpt>
      <trkpt lat="61.303734428623" lon="12.237471321725">
        <ele>468.8</ele>
        <time>2019-12-30T18:32:02Z</time>
      </trkpt>
      <trkpt lat="61.303703080317" lon="12.237404434163">
        <ele>469.8</ele>
        <time>2019-12-30T18:32:05Z</time>
      </trkpt>
      <trkpt lat="61.303662176645" lon="12.23730829377">
        <ele>471</ele>
        <time>2019-12-30T18:32:09Z</time>
      </trkpt>
      <trkpt lat="61.303616662928" lon="12.237247860271">
        <ele>472</ele>
        <time>2019-12-30T18:32:12Z</time>
      </trkpt>
      <trkpt lat="61.303493784274" lon="12.237187175315">
        <ele>473.2</ele>
        <time>2019-12-30T18:32:18Z</time>
      </trkpt>
      <trkpt lat="61.303394542578" lon="12.237158509217">
        <ele>474.4</ele>
        <time>2019-12-30T18:32:24Z</time>
      </trkpt>
      <trkpt lat="61.303307538456" lon="12.237195054301">
        <ele>475.4</ele>
        <time>2019-12-30T18:32:29Z</time>
      </trkpt>
      <trkpt lat="61.30315884355" lon="12.237201676002">
        <ele>476.4</ele>
        <time>2019-12-30T18:32:35Z</time>
      </trkpt>
      <trkpt lat="61.30296857442" lon="12.23739295096">
        <ele>476.6</ele>
        <time>2019-12-30T18:32:41Z</time>
      </trkpt>
      <trkpt lat="61.302890455112" lon="12.237608449609">
        <ele>476.2</ele>
        <time>2019-12-30T18:32:44Z</time>
      </trkpt>
      <trkpt lat="61.302813090175" lon="12.237856134754">
        <ele>475.4</ele>
        <time>2019-12-30T18:32:47Z</time>
      </trkpt>
      <trkpt lat="61.30263581299" lon="12.238370448138">
        <ele>473.2</ele>
        <time>2019-12-30T18:32:52Z</time>
      </trkpt>
      <trkpt lat="61.302574038387" lon="12.238588042262">
        <ele>471.6</ele>
        <time>2019-12-30T18:32:54Z</time>
      </trkpt>
      <trkpt lat="61.302539504959" lon="12.238681500447">
        <ele>470.6</ele>
        <time>2019-12-30T18:32:55Z</time>
      </trkpt>
      <trkpt lat="61.302499271839" lon="12.238770683863">
        <ele>470</ele>
        <time>2019-12-30T18:32:56Z</time>
      </trkpt>
      <trkpt lat="61.302407909129" lon="12.238929772325">
        <ele>470</ele>
        <time>2019-12-30T18:32:58Z</time>
      </trkpt>
      <trkpt lat="61.302289891977" lon="12.239025912718">
        <ele>469.2</ele>
        <time>2019-12-30T18:33:00Z</time>
      </trkpt>
      <trkpt lat="61.302231721591" lon="12.239057512481">
        <ele>468.6</ele>
        <time>2019-12-30T18:33:01Z</time>
      </trkpt>
      <trkpt lat="61.302179167078" lon="12.239093806108">
        <ele>468.2</ele>
        <time>2019-12-30T18:33:02Z</time>
      </trkpt>
      <trkpt lat="61.302108172385" lon="12.239237304236">
        <ele>467.6</ele>
        <time>2019-12-30T18:33:04Z</time>
      </trkpt>
      <trkpt lat="61.302051259284" lon="12.239507033778">
        <ele>467</ele>
        <time>2019-12-30T18:33:07Z</time>
      </trkpt>
      <trkpt lat="61.302093168784" lon="12.239698644012">
        <ele>466.4</ele>
        <time>2019-12-30T18:33:09Z</time>
      </trkpt>
      <trkpt lat="61.302176652508" lon="12.239836107172">
        <ele>465</ele>
        <time>2019-12-30T18:33:11Z</time>
      </trkpt>
      <trkpt lat="61.30222090894" lon="12.239896121576">
        <ele>464.2</ele>
        <time>2019-12-30T18:33:12Z</time>
      </trkpt>
      <trkpt lat="61.302268350494" lon="12.239945742424">
        <ele>463.4</ele>
        <time>2019-12-30T18:33:13Z</time>
      </trkpt>
      <trkpt lat="61.302368849475" lon="12.240032327451">
        <ele>462</ele>
        <time>2019-12-30T18:33:15Z</time>
      </trkpt>
      <trkpt lat="61.302479742012" lon="12.2400969519">
        <ele>460.6</ele>
        <time>2019-12-30T18:33:17Z</time>
      </trkpt>
      <trkpt lat="61.302538247674" lon="12.240114721528">
        <ele>460</ele>
        <time>2019-12-30T18:33:18Z</time>
      </trkpt>
      <trkpt lat="61.302597591526" lon="12.240110782035">
        <ele>459.4</ele>
        <time>2019-12-30T18:33:19Z</time>
      </trkpt>
      <trkpt lat="61.302651068048" lon="12.24008437905">
        <ele>459</ele>
        <time>2019-12-30T18:33:20Z</time>
      </trkpt>
      <trkpt lat="61.302741844025" lon="12.239989831218">
        <ele>458.4</ele>
        <time>2019-12-30T18:33:22Z</time>
      </trkpt>
      <trkpt lat="61.302779311118" lon="12.239800400278">
        <ele>458.2</ele>
        <time>2019-12-30T18:33:25Z</time>
      </trkpt>
      <trkpt lat="61.302702616733" lon="12.239505441217">
        <ele>459.6</ele>
        <time>2019-12-30T18:33:33Z</time>
      </trkpt>
      <trkpt lat="61.302677219576" lon="12.239402595304">
        <ele>460.8</ele>
        <time>2019-12-30T18:33:37Z</time>
      </trkpt>
      <trkpt lat="61.302674537368" lon="12.239325230367">
        <ele>462</ele>
        <time>2019-12-30T18:33:40Z</time>
      </trkpt>
      <trkpt lat="61.302667999486" lon="12.239268987818">
        <ele>462.8</ele>
        <time>2019-12-30T18:33:42Z</time>
      </trkpt>
      <trkpt lat="61.302662048337" lon="12.239202435532">
        <ele>463.4</ele>
        <time>2019-12-30T18:33:44Z</time>
      </trkpt>
      <trkpt lat="61.302631538221" lon="12.239111072822">
        <ele>464.4</ele>
        <time>2019-12-30T18:33:48Z</time>
      </trkpt>
      <trkpt lat="61.302617540448" lon="12.239020464483">
        <ele>465.6</ele>
        <time>2019-12-30T18:33:52Z</time>
      </trkpt>
      <trkpt lat="61.302601614838" lon="12.238932286895">
        <ele>466.6</ele>
        <time>2019-12-30T18:33:56Z</time>
      </trkpt>
      <trkpt lat="61.302589125807" lon="12.238875122337">
        <ele>467.8</ele>
        <time>2019-12-30T18:33:59Z</time>
      </trkpt>
      <trkpt lat="61.302575714767" lon="12.238798427952">
        <ele>469</ele>
        <time>2019-12-30T18:34:03Z</time>
      </trkpt>
      <trkpt lat="61.30256372865" lon="12.23867957261">
        <ele>470.2</ele>
        <time>2019-12-30T18:34:08Z</time>
      </trkpt>
      <trkpt lat="61.302575211853" lon="12.238568847711">
        <ele>471.4</ele>
        <time>2019-12-30T18:34:11Z</time>
      </trkpt>
      <trkpt lat="61.30258803616" lon="12.238491231317">
        <ele>472</ele>
        <time>2019-12-30T18:34:13Z</time>
      </trkpt>
      <trkpt lat="61.302603375037" lon="12.238413950199">
        <ele>472.4</ele>
        <time>2019-12-30T18:34:15Z</time>
      </trkpt>
      <trkpt lat="61.302611673118" lon="12.238386289929">
        <ele>472.6</ele>
        <time>2019-12-30T18:34:16Z</time>
      </trkpt>
      <trkpt lat="61.302659114672" lon="12.238273134279">
        <ele>473.4</ele>
        <time>2019-12-30T18:34:20Z</time>
      </trkpt>
      <trkpt lat="61.302715189583" lon="12.238173724945">
        <ele>474.4</ele>
        <time>2019-12-30T18:34:25Z</time>
      </trkpt>
      <trkpt lat="61.30274896864" lon="12.238123768821">
        <ele>475.4</ele>
        <time>2019-12-30T18:34:28Z</time>
      </trkpt>
      <trkpt lat="61.302831195079" lon="12.237964680359">
        <ele>476.6</ele>
        <time>2019-12-30T18:34:35Z</time>
      </trkpt>
      <trkpt lat="61.302898753193" lon="12.237868959061">
        <ele>477.6</ele>
        <time>2019-12-30T18:34:39Z</time>
      </trkpt>
      <trkpt lat="61.303080472785" lon="12.237555727458">
        <ele>478.8</ele>
        <time>2019-12-30T18:34:48Z</time>
      </trkpt>
      <trkpt lat="61.303364032462" lon="12.23726722246">
        <ele>477.4</ele>
        <time>2019-12-30T18:34:56Z</time>
      </trkpt>
      <trkpt lat="61.303465788728" lon="12.237255990714">
        <ele>476.2</ele>
        <time>2019-12-30T18:34:58Z</time>
      </trkpt>
      <trkpt lat="61.303569808107" lon="12.237332014547">
        <ele>475.6</ele>
        <time>2019-12-30T18:35:00Z</time>
      </trkpt>
      <trkpt lat="61.303613896901" lon="12.237404434163">
        <ele>475</ele>
        <time>2019-12-30T18:35:01Z</time>
      </trkpt>
      <trkpt lat="61.303650944899" lon="12.237484565127">
        <ele>474.4</ele>
        <time>2019-12-30T18:35:02Z</time>
      </trkpt>
      <trkpt lat="61.303665026491" lon="12.237594703293">
        <ele>473.2</ele>
        <time>2019-12-30T18:35:03Z</time>
      </trkpt>
      <trkpt lat="61.303659326799" lon="12.237734597204">
        <ele>472.2</ele>
        <time>2019-12-30T18:35:04Z</time>
      </trkpt>
      <trkpt lat="61.303638623506" lon="12.237894020942">
        <ele>471.2</ele>
        <time>2019-12-30T18:35:05Z</time>
      </trkpt>
      <trkpt lat="61.303607191381" lon="12.238065598435">
        <ele>469.8</ele>
        <time>2019-12-30T18:35:06Z</time>
      </trkpt>
      <trkpt lat="61.303571652125" lon="12.238239103765">
        <ele>468.4</ele>
        <time>2019-12-30T18:35:07Z</time>
      </trkpt>
      <trkpt lat="61.303534101213" lon="12.238406490308">
        <ele>467</ele>
        <time>2019-12-30T18:35:08Z</time>
      </trkpt>
      <trkpt lat="61.303462771244" lon="12.23870723288">
        <ele>465.6</ele>
        <time>2019-12-30T18:35:10Z</time>
      </trkpt>
      <trkpt lat="61.303392363284" lon="12.239006634348">
        <ele>463.8</ele>
        <time>2019-12-30T18:35:12Z</time>
      </trkpt>
      <trkpt lat="61.30334995087" lon="12.239145773888">
        <ele>462.2</ele>
        <time>2019-12-30T18:35:13Z</time>
      </trkpt>
      <trkpt lat="61.303295217063" lon="12.239280303383">
        <ele>460.2</ele>
        <time>2019-12-30T18:35:14Z</time>
      </trkpt>
      <trkpt lat="61.303238974514" lon="12.239416173982">
        <ele>458.4</ele>
        <time>2019-12-30T18:35:15Z</time>
      </trkpt>
      <trkpt lat="61.303168985649" lon="12.239549697649">
        <ele>457</ele>
        <time>2019-12-30T18:35:16Z</time>
      </trkpt>
      <trkpt lat="61.30303982057" lon="12.239862342519">
        <ele>455.4</ele>
        <time>2019-12-30T18:35:18Z</time>
      </trkpt>
      <trkpt lat="61.302903949971" lon="12.240129473672">
        <ele>454.4</ele>
        <time>2019-12-30T18:35:20Z</time>
      </trkpt>
      <trkpt lat="61.302704460751" lon="12.240442705275">
        <ele>453.6</ele>
        <time>2019-12-30T18:35:23Z</time>
      </trkpt>
      <trkpt lat="61.302560459709" lon="12.240853586013">
        <ele>453.8</ele>
        <time>2019-12-30T18:35:26Z</time>
      </trkpt>
      <trkpt lat="61.302534475819" lon="12.241100852063">
        <ele>453.6</ele>
        <time>2019-12-30T18:35:28Z</time>
      </trkpt>
      <trkpt lat="61.302571775274" lon="12.241333030693">
        <ele>453.2</ele>
        <time>2019-12-30T18:35:30Z</time>
      </trkpt>
      <trkpt lat="61.302662802708" lon="12.241530424438">
        <ele>452.2</ele>
        <time>2019-12-30T18:35:32Z</time>
      </trkpt>
      <trkpt lat="61.302759948929" lon="12.241687752701">
        <ele>451</ele>
        <time>2019-12-30T18:35:34Z</time>
      </trkpt>
      <trkpt lat="61.302798757126" lon="12.241790347157">
        <ele>450.4</ele>
        <time>2019-12-30T18:35:35Z</time>
      </trkpt>
      <trkpt lat="61.302828345233" lon="12.24192839705">
        <ele>450</ele>
        <time>2019-12-30T18:35:36Z</time>
      </trkpt>
      <trkpt lat="61.302836224219" lon="12.242072314273">
        <ele>449</ele>
        <time>2019-12-30T18:35:37Z</time>
      </trkpt>
      <trkpt lat="61.302812922537" lon="12.24221254346">
        <ele>447.8</ele>
        <time>2019-12-30T18:35:38Z</time>
      </trkpt>
      <trkpt lat="61.302770342485" lon="12.242335841209">
        <ele>446</ele>
        <time>2019-12-30T18:35:39Z</time>
      </trkpt>
      <trkpt lat="61.302662048337" lon="12.242509597996">
        <ele>444.2</ele>
        <time>2019-12-30T18:35:41Z</time>
      </trkpt>
      <trkpt lat="61.302606979254" lon="12.242571204961">
        <ele>443.2</ele>
        <time>2019-12-30T18:35:42Z</time>
      </trkpt>
      <trkpt lat="61.302499271839" lon="12.242670781933">
        <ele>442.2</ele>
        <time>2019-12-30T18:35:44Z</time>
      </trkpt>
      <trkpt lat="61.302331214744" lon="12.242736328391">
        <ele>442.2</ele>
        <time>2019-12-30T18:35:47Z</time>
      </trkpt>
      <trkpt lat="61.302204396597" lon="12.242692574873">
        <ele>445</ele>
        <time>2019-12-30T18:35:50Z</time>
      </trkpt>
      <trkpt lat="61.302145555659" lon="12.242660807472">
        <ele>446.2</ele>
        <time>2019-12-30T18:35:52Z</time>
      </trkpt>
      <trkpt lat="61.302069615645" lon="12.242631051727">
        <ele>447.4</ele>
        <time>2019-12-30T18:35:55Z</time>
      </trkpt>
      <trkpt lat="61.301724868098" lon="12.242490235807">
        <ele>448.6</ele>
        <time>2019-12-30T18:36:05Z</time>
      </trkpt>
      <trkpt lat="61.301686478996" lon="12.242462743175">
        <ele>448.8</ele>
        <time>2019-12-30T18:36:06Z</time>
      </trkpt>
      <trkpt lat="61.301404344242" lon="12.241998134458">
        <ele>449.8</ele>
        <time>2019-12-30T18:36:19Z</time>
      </trkpt>
      <trkpt lat="61.301354304299" lon="12.241825048223">
        <ele>451</ele>
        <time>2019-12-30T18:36:24Z</time>
      </trkpt>
      <trkpt lat="61.301302420338" lon="12.241644334459">
        <ele>452.2</ele>
        <time>2019-12-30T18:36:30Z</time>
      </trkpt>
      <trkpt lat="61.301288171108" lon="12.24155791707">
        <ele>454.4</ele>
        <time>2019-12-30T18:36:33Z</time>
      </trkpt>
      <trkpt lat="61.301277861371" lon="12.241482060875">
        <ele>455.4</ele>
        <time>2019-12-30T18:36:36Z</time>
      </trkpt>
      <trkpt lat="61.301238466441" lon="12.241266059312">
        <ele>456.8</ele>
        <time>2019-12-30T18:36:44Z</time>
      </trkpt>
      <trkpt lat="61.301153473975" lon="12.24118995166">
        <ele>458</ele>
        <time>2019-12-30T18:36:49Z</time>
      </trkpt>
      <trkpt lat="61.301132686863" lon="12.241190035479">
        <ele>458.2</ele>
        <time>2019-12-30T18:36:50Z</time>
      </trkpt>
      <trkpt lat="61.301049538415" lon="12.241220629414">
        <ele>459</ele>
        <time>2019-12-30T18:36:53Z</time>
      </trkpt>
      <trkpt lat="61.300648967414" lon="12.241727315269">
        <ele>459</ele>
        <time>2019-12-30T18:37:07Z</time>
      </trkpt>
      <trkpt lat="61.300565316052" lon="12.242090083901">
        <ele>459</ele>
        <time>2019-12-30T18:37:13Z</time>
      </trkpt>
      <trkpt lat="61.300587192811" lon="12.242191421072">
        <ele>459</ele>
        <time>2019-12-30T18:37:15Z</time>
      </trkpt>
      <trkpt lat="61.300827753341" lon="12.242401303848">
        <ele>457.8</ele>
        <time>2019-12-30T18:37:20Z</time>
      </trkpt>
      <trkpt lat="61.300914003092" lon="12.242451679067">
        <ele>456.4</ele>
        <time>2019-12-30T18:37:21Z</time>
      </trkpt>
      <trkpt lat="61.301014921168" lon="12.242507921616">
        <ele>454.4</ele>
        <time>2019-12-30T18:37:22Z</time>
      </trkpt>
      <trkpt lat="61.301123131497" lon="12.242597188851">
        <ele>452</ele>
        <time>2019-12-30T18:37:23Z</time>
      </trkpt>
      <trkpt lat="61.301233604939" lon="12.242681259308">
        <ele>449.6</ele>
        <time>2019-12-30T18:37:24Z</time>
      </trkpt>
      <trkpt lat="61.301342402001" lon="12.242757869874">
        <ele>447.2</ele>
        <time>2019-12-30T18:37:25Z</time>
      </trkpt>
      <trkpt lat="61.301444912638" lon="12.242837917019">
        <ele>445</ele>
        <time>2019-12-30T18:37:26Z</time>
      </trkpt>
      <trkpt lat="61.301543986696" lon="12.242907319151">
        <ele>443.6</ele>
        <time>2019-12-30T18:37:27Z</time>
      </trkpt>
      <trkpt lat="61.301640713822" lon="12.242965908632">
        <ele>442.6</ele>
        <time>2019-12-30T18:37:28Z</time>
      </trkpt>
      <trkpt lat="61.301902815835" lon="12.243132205528">
        <ele>441.4</ele>
        <time>2019-12-30T18:37:31Z</time>
      </trkpt>
      <trkpt lat="61.302049750542" lon="12.243167577146">
        <ele>441.6</ele>
        <time>2019-12-30T18:37:33Z</time>
      </trkpt>
      <trkpt lat="61.302287712683" lon="12.243079651015">
        <ele>442.4</ele>
        <time>2019-12-30T18:37:36Z</time>
      </trkpt>
      <trkpt lat="61.302575379491" lon="12.242910252816">
        <ele>441.2</ele>
        <time>2019-12-30T18:37:40Z</time>
      </trkpt>
      <trkpt lat="61.303019620191" lon="12.242553435333">
        <ele>440.8</ele>
        <time>2019-12-30T18:37:47Z</time>
      </trkpt>
      <trkpt lat="61.303121711733" lon="12.242455702379">
        <ele>441.2</ele>
        <time>2019-12-30T18:37:49Z</time>
      </trkpt>
      <trkpt lat="61.303314579252" lon="12.242262080489">
        <ele>442.4</ele>
        <time>2019-12-30T18:37:55Z</time>
      </trkpt>
      <trkpt lat="61.303405858143" lon="12.242189660873">
        <ele>443.6</ele>
        <time>2019-12-30T18:37:59Z</time>
      </trkpt>
      <trkpt lat="61.303422705762" lon="12.242181614249">
        <ele>443.8</ele>
        <time>2019-12-30T18:38:00Z</time>
      </trkpt>
      <trkpt lat="61.303457993561" lon="12.242252022209">
        <ele>444</ele>
        <time>2019-12-30T18:38:03Z</time>
      </trkpt>
      <trkpt lat="61.303437793182" lon="12.242320167056">
        <ele>444.2</ele>
        <time>2019-12-30T18:38:05Z</time>
      </trkpt>
      <trkpt lat="61.303107797779" lon="12.242649072812">
        <ele>444.6</ele>
        <time>2019-12-30T18:38:16Z</time>
      </trkpt>
      <trkpt lat="61.303027666815" lon="12.242734568192">
        <ele>444.8</ele>
        <time>2019-12-30T18:38:18Z</time>
      </trkpt>
      <trkpt lat="61.302600106096" lon="12.243067916355">
        <ele>445</ele>
        <time>2019-12-30T18:38:29Z</time>
      </trkpt>
      <trkpt lat="61.302411932441" lon="12.24320244585">
        <ele>445.2</ele>
        <time>2019-12-30T18:38:34Z</time>
      </trkpt>
      <trkpt lat="61.302195679421" lon="12.243344016141">
        <ele>445.2</ele>
        <time>2019-12-30T18:38:40Z</time>
      </trkpt>
      <trkpt lat="61.301958471651" lon="12.24341199335">
        <ele>446</ele>
        <time>2019-12-30T18:38:47Z</time>
      </trkpt>
      <trkpt lat="61.301569970586" lon="12.243447784063">
        <ele>445.6</ele>
        <time>2019-12-30T18:38:56Z</time>
      </trkpt>
      <trkpt lat="61.301327649857" lon="12.243403695269">
        <ele>444.8</ele>
        <time>2019-12-30T18:39:01Z</time>
      </trkpt>
      <trkpt lat="61.301277693733" lon="12.243380058311">
        <ele>444.8</ele>
        <time>2019-12-30T18:39:02Z</time>
      </trkpt>
      <trkpt lat="61.30119664076" lon="12.243341166295">
        <ele>444.6</ele>
        <time>2019-12-30T18:39:04Z</time>
      </trkpt>
      <trkpt lat="61.300991954762" lon="12.24335332005">
        <ele>446.2</ele>
        <time>2019-12-30T18:39:15Z</time>
      </trkpt>
      <trkpt lat="61.300886342822" lon="12.243364803253">
        <ele>447.2</ele>
        <time>2019-12-30T18:39:20Z</time>
      </trkpt>
      <trkpt lat="61.300773522448" lon="12.243333874042">
        <ele>448.4</ele>
        <time>2019-12-30T18:39:25Z</time>
      </trkpt>
      <trkpt lat="61.300599765661" lon="12.243245612635">
        <ele>449.6</ele>
        <time>2019-12-30T18:39:32Z</time>
      </trkpt>
      <trkpt lat="61.300363647538" lon="12.242983259165">
        <ele>450.6</ele>
        <time>2019-12-30T18:39:44Z</time>
      </trkpt>
      <trkpt lat="61.300314948699" lon="12.242872366628">
        <ele>451.6</ele>
        <time>2019-12-30T18:39:49Z</time>
      </trkpt>
      <trkpt lat="61.300298687813" lon="12.242815285889">
        <ele>453</ele>
        <time>2019-12-30T18:39:52Z</time>
      </trkpt>
      <trkpt lat="61.300290305913" lon="12.242800869021">
        <ele>453.4</ele>
        <time>2019-12-30T18:39:53Z</time>
      </trkpt>
      <trkpt lat="61.300252922639" lon="12.242685869353">
        <ele>454.2</ele>
        <time>2019-12-30T18:39:59Z</time>
      </trkpt>
      <trkpt lat="61.300236158839" lon="12.242583442535">
        <ele>455.4</ele>
        <time>2019-12-30T18:40:03Z</time>
      </trkpt>
      <trkpt lat="61.300232219346" lon="12.24254614308">
        <ele>455.4</ele>
        <time>2019-12-30T18:40:04Z</time>
      </trkpt>
      <trkpt lat="61.300227274025" lon="12.24243214924">
        <ele>456.4</ele>
        <time>2019-12-30T18:40:07Z</time>
      </trkpt>
      <trkpt lat="61.300221239057" lon="12.242131574306">
        <ele>457.4</ele>
        <time>2019-12-30T18:40:12Z</time>
      </trkpt>
      <trkpt lat="61.300219562677" lon="12.241737708825">
        <ele>456.4</ele>
        <time>2019-12-30T18:40:16Z</time>
      </trkpt>
      <trkpt lat="61.300222412523" lon="12.241661517354">
        <ele>456.2</ele>
        <time>2019-12-30T18:40:17Z</time>
      </trkpt>
      <trkpt lat="61.30022601674" lon="12.241594210697">
        <ele>455</ele>
        <time>2019-12-30T18:40:18Z</time>
      </trkpt>
      <trkpt lat="61.300201373954" lon="12.241171762937">
        <ele>456</ele>
        <time>2019-12-30T18:40:26Z</time>
      </trkpt>
      <trkpt lat="61.300106574665" lon="12.241005633679">
        <ele>457.2</ele>
        <time>2019-12-30T18:40:31Z</time>
      </trkpt>
      <trkpt lat="61.300059887482" lon="12.240967915129">
        <ele>457.6</ele>
        <time>2019-12-30T18:40:33Z</time>
      </trkpt>
      <trkpt lat="61.29999132354" lon="12.240954336451">
        <ele>458.2</ele>
        <time>2019-12-30T18:40:36Z</time>
      </trkpt>
      <trkpt lat="61.299808765758" lon="12.240853250737">
        <ele>459.2</ele>
        <time>2019-12-30T18:40:43Z</time>
      </trkpt>
      <trkpt lat="61.299683959267" lon="12.240726181133">
        <ele>459.8</ele>
        <time>2019-12-30T18:40:49Z</time>
      </trkpt>
      <trkpt lat="61.299636936808" lon="12.240585449032">
        <ele>460.6</ele>
        <time>2019-12-30T18:40:53Z</time>
      </trkpt>
      <trkpt lat="61.299624447777" lon="12.240408171847">
        <ele>461.8</ele>
        <time>2019-12-30T18:40:57Z</time>
      </trkpt>
      <trkpt lat="61.299655376988" lon="12.240164510014">
        <ele>462.8</ele>
        <time>2019-12-30T18:41:02Z</time>
      </trkpt>
      <trkpt lat="61.299741459101" lon="12.239909113521">
        <ele>464</ele>
        <time>2019-12-30T18:41:08Z</time>
      </trkpt>
      <trkpt lat="61.299956287198" lon="12.239707528826">
        <ele>465</ele>
        <time>2019-12-30T18:41:17Z</time>
      </trkpt>
      <trkpt lat="61.300303465496" lon="12.239656315417">
        <ele>465</ele>
        <time>2019-12-30T18:41:25Z</time>
      </trkpt>
      <trkpt lat="61.300399354432" lon="12.239596301013">
        <ele>464.6</ele>
        <time>2019-12-30T18:41:27Z</time>
      </trkpt>
      <trkpt lat="61.300462637777" lon="12.239506447045">
        <ele>464.4</ele>
        <time>2019-12-30T18:41:29Z</time>
      </trkpt>
      <trkpt lat="61.30059984948" lon="12.239138313997">
        <ele>466</ele>
        <time>2019-12-30T18:41:39Z</time>
      </trkpt>
      <trkpt lat="61.300640669333" lon="12.23897796825">
        <ele>467.4</ele>
        <time>2019-12-30T18:41:44Z</time>
      </trkpt>
      <trkpt lat="61.300704120316" lon="12.238839247805">
        <ele>468.4</ele>
        <time>2019-12-30T18:41:49Z</time>
      </trkpt>
      <trkpt lat="61.300800847442" lon="12.238691391089">
        <ele>469.6</ele>
        <time>2019-12-30T18:41:54Z</time>
      </trkpt>
      <trkpt lat="61.301062697998" lon="12.238622072776">
        <ele>470.6</ele>
        <time>2019-12-30T18:42:02Z</time>
      </trkpt>
      <trkpt lat="61.301302168881" lon="12.238844528402">
        <ele>468.6</ele>
        <time>2019-12-30T18:42:06Z</time>
      </trkpt>
      <trkpt lat="61.301623782384" lon="12.239189275949">
        <ele>467.8</ele>
        <time>2019-12-30T18:42:11Z</time>
      </trkpt>
      <trkpt lat="61.301753618015" lon="12.239223893196">
        <ele>467.4</ele>
        <time>2019-12-30T18:42:13Z</time>
      </trkpt>
      <trkpt lat="61.301851434788" lon="12.239148204639">
        <ele>467</ele>
        <time>2019-12-30T18:42:15Z</time>
      </trkpt>
      <trkpt lat="61.301961321497" lon="12.238728439087">
        <ele>468.6</ele>
        <time>2019-12-30T18:42:23Z</time>
      </trkpt>
      <trkpt lat="61.302070621473" lon="12.238412357638">
        <ele>469.8</ele>
        <time>2019-12-30T18:42:30Z</time>
      </trkpt>
      <trkpt lat="61.302138011949" lon="12.238279504523">
        <ele>470.8</ele>
        <time>2019-12-30T18:42:34Z</time>
      </trkpt>
      <trkpt lat="61.302250832323" lon="12.237992843543">
        <ele>472</ele>
        <time>2019-12-30T18:42:41Z</time>
      </trkpt>
      <trkpt lat="61.302291819814" lon="12.237894607675">
        <ele>472.8</ele>
        <time>2019-12-30T18:42:44Z</time>
      </trkpt>
      <trkpt lat="61.302295172574" lon="12.237842388438">
        <ele>473.2</ele>
        <time>2019-12-30T18:42:45Z</time>
      </trkpt>
      <trkpt lat="61.302308499795" lon="12.237605264487">
        <ele>474.2</ele>
        <time>2019-12-30T18:42:50Z</time>
      </trkpt>
      <trkpt lat="61.30230640432" lon="12.23726722246">
        <ele>475.2</ele>
        <time>2019-12-30T18:42:57Z</time>
      </trkpt>
      <trkpt lat="61.302293244737" lon="12.237104948876">
        <ele>476.4</ele>
        <time>2019-12-30T18:43:01Z</time>
      </trkpt>
      <trkpt lat="61.302321827016" lon="12.236959690549">
        <ele>477.4</ele>
        <time>2019-12-30T18:43:05Z</time>
      </trkpt>
      <trkpt lat="61.302373040425" lon="12.23681208529">
        <ele>478.4</ele>
        <time>2019-12-30T18:43:09Z</time>
      </trkpt>
      <trkpt lat="61.302490638482" lon="12.236596419003">
        <ele>479.4</ele>
        <time>2019-12-30T18:43:15Z</time>
      </trkpt>
      <trkpt lat="61.302555849664" lon="12.23646423644">
        <ele>480.6</ele>
        <time>2019-12-30T18:43:19Z</time>
      </trkpt>
      <trkpt lat="61.302573116378" lon="12.236441353853">
        <ele>480.8</ele>
        <time>2019-12-30T18:43:20Z</time>
      </trkpt>
      <trkpt lat="61.302744442414" lon="12.236309506566">
        <ele>481.6</ele>
        <time>2019-12-30T18:43:27Z</time>
      </trkpt>
      <trkpt lat="61.303195388634" lon="12.236507151768">
        <ele>481.8</ele>
        <time>2019-12-30T18:43:38Z</time>
      </trkpt>
      <trkpt lat="61.303251631183" lon="12.236544618861">
        <ele>481.8</ele>
        <time>2019-12-30T18:43:39Z</time>
      </trkpt>
      <trkpt lat="61.303318434926" lon="12.236581331583">
        <ele>482</ele>
        <time>2019-12-30T18:43:40Z</time>
      </trkpt>
      <trkpt lat="61.303543405122" lon="12.23669976783">
        <ele>480</ele>
        <time>2019-12-30T18:43:43Z</time>
      </trkpt>
      <trkpt lat="61.303622530258" lon="12.236769421419">
        <ele>477.6</ele>
        <time>2019-12-30T18:43:44Z</time>
      </trkpt>
      <trkpt lat="61.303716323719" lon="12.236848378917">
        <ele>474.4</ele>
        <time>2019-12-30T18:43:45Z</time>
      </trkpt>
      <trkpt lat="61.303814056673" lon="12.23693194646">
        <ele>471.6</ele>
        <time>2019-12-30T18:43:46Z</time>
      </trkpt>
      <trkpt lat="61.303914723292" lon="12.237005623361">
        <ele>469</ele>
        <time>2019-12-30T18:43:47Z</time>
      </trkpt>
      <trkpt lat="61.304007510925" lon="12.23710545179">
        <ele>467</ele>
        <time>2019-12-30T18:43:48Z</time>
      </trkpt>
      <trkpt lat="61.304104405689" lon="12.237212991567">
        <ele>465.2</ele>
        <time>2019-12-30T18:43:49Z</time>
      </trkpt>
      <trkpt lat="61.304214460036" lon="12.237331092538">
        <ele>463.2</ele>
        <time>2019-12-30T18:43:50Z</time>
      </trkpt>
      <trkpt lat="61.304333315378" lon="12.237448606776">
        <ele>461.8</ele>
        <time>2019-12-30T18:43:51Z</time>
      </trkpt>
      <trkpt lat="61.304564655818" lon="12.237700399052">
        <ele>460.4</ele>
        <time>2019-12-30T18:43:53Z</time>
      </trkpt>
      <trkpt lat="61.304689629947" lon="12.237806094811">
        <ele>460.2</ele>
        <time>2019-12-30T18:43:54Z</time>
      </trkpt>
      <trkpt lat="61.304876797774" lon="12.237890752001">
        <ele>459.4</ele>
        <time>2019-12-30T18:43:56Z</time>
      </trkpt>
      <trkpt lat="61.305006298129" lon="12.237930063112">
        <ele>460.2</ele>
        <time>2019-12-30T18:43:58Z</time>
      </trkpt>
      <trkpt lat="61.305020798816" lon="12.238175401325">
        <ele>459.6</ele>
        <time>2019-12-30T18:44:01Z</time>
      </trkpt>
      <trkpt lat="61.304931363943" lon="12.238303476757">
        <ele>460.2</ele>
        <time>2019-12-30T18:44:03Z</time>
      </trkpt>
      <trkpt lat="61.304759115898" lon="12.238396012933">
        <ele>458.4</ele>
        <time>2019-12-30T18:44:06Z</time>
      </trkpt>
      <trkpt lat="61.304687283015" lon="12.23844404122">
        <ele>456.8</ele>
        <time>2019-12-30T18:44:07Z</time>
      </trkpt>
      <trkpt lat="61.304615114856" lon="12.238464073961">
        <ele>456</ele>
        <time>2019-12-30T18:44:08Z</time>
      </trkpt>
      <trkpt lat="61.304554513719" lon="12.238474970431">
        <ele>455.6</ele>
        <time>2019-12-30T18:44:09Z</time>
      </trkpt>
      <trkpt lat="61.30450162393" lon="12.238473964603">
        <ele>455.4</ele>
        <time>2019-12-30T18:44:10Z</time>
      </trkpt>
      <trkpt lat="61.304329543523" lon="12.238454770052">
        <ele>456.8</ele>
        <time>2019-12-30T18:44:13Z</time>
      </trkpt>
      <trkpt lat="61.304046570579" lon="12.238382182798">
        <ele>457.6</ele>
        <time>2019-12-30T18:44:18Z</time>
      </trkpt>
      <trkpt lat="61.303975324429" lon="12.238331053208">
        <ele>458.2</ele>
        <time>2019-12-30T18:44:20Z</time>
      </trkpt>
      <trkpt lat="61.303897037483" lon="12.238199457378">
        <ele>459</ele>
        <time>2019-12-30T18:44:23Z</time>
      </trkpt>
      <trkpt lat="61.303863928978" lon="12.238025113858">
        <ele>459.2</ele>
        <time>2019-12-30T18:44:25Z</time>
      </trkpt>
      <trkpt lat="61.30377994234" lon="12.237676678275">
        <ele>460.4</ele>
        <time>2019-12-30T18:44:32Z</time>
      </trkpt>
      <trkpt lat="61.30373384189" lon="12.237507280076">
        <ele>461.6</ele>
        <time>2019-12-30T18:44:38Z</time>
      </trkpt>
      <trkpt lat="61.303705930163" lon="12.237429160768">
        <ele>462.8</ele>
        <time>2019-12-30T18:44:41Z</time>
      </trkpt>
      <trkpt lat="61.303681371196" lon="12.237381048662">
        <ele>463.2</ele>
        <time>2019-12-30T18:44:43Z</time>
      </trkpt>
      <trkpt lat="61.303652872736" lon="12.237321453353">
        <ele>463.8</ele>
        <time>2019-12-30T18:44:45Z</time>
      </trkpt>
      <trkpt lat="61.303567796451" lon="12.237212656291">
        <ele>465</ele>
        <time>2019-12-30T18:44:50Z</time>
      </trkpt>
      <trkpt lat="61.30348238489" lon="12.237151887516">
        <ele>466</ele>
        <time>2019-12-30T18:44:54Z</time>
      </trkpt>
      <trkpt lat="61.303390603085" lon="12.237166052927">
        <ele>467.2</ele>
        <time>2019-12-30T18:44:59Z</time>
      </trkpt>
      <trkpt lat="61.303322206781" lon="12.237173848094">
        <ele>468.2</ele>
        <time>2019-12-30T18:45:03Z</time>
      </trkpt>
      <trkpt lat="61.303167393088" lon="12.237220535277">
        <ele>469.2</ele>
        <time>2019-12-30T18:45:09Z</time>
      </trkpt>
      <trkpt lat="61.302976369587" lon="12.237322207724">
        <ele>469.4</ele>
        <time>2019-12-30T18:45:14Z</time>
      </trkpt>
      <trkpt lat="61.302909230568" lon="12.2374398896">
        <ele>469</ele>
        <time>2019-12-30T18:45:16Z</time>
      </trkpt>
      <trkpt lat="61.302822058808" lon="12.237673996067">
        <ele>468.6</ele>
        <time>2019-12-30T18:45:19Z</time>
      </trkpt>
      <trkpt lat="61.302755087427" lon="12.237844232456">
        <ele>468.2</ele>
        <time>2019-12-30T18:45:21Z</time>
      </trkpt>
      <trkpt lat="61.302649056392" lon="12.238115135464">
        <ele>467</ele>
        <time>2019-12-30T18:45:24Z</time>
      </trkpt>
      <trkpt lat="61.302580408631" lon="12.238315881969">
        <ele>465.8</ele>
        <time>2019-12-30T18:45:26Z</time>
      </trkpt>
      <trkpt lat="61.302489548835" lon="12.238608829374">
        <ele>464.6</ele>
        <time>2019-12-30T18:45:29Z</time>
      </trkpt>
      <trkpt lat="61.30245224938" lon="12.238693570383">
        <ele>463.8</ele>
        <time>2019-12-30T18:45:30Z</time>
      </trkpt>
      <trkpt lat="61.302409836966" lon="12.238774623356">
        <ele>463.4</ele>
        <time>2019-12-30T18:45:31Z</time>
      </trkpt>
      <trkpt lat="61.302317049333" lon="12.238925246099">
        <ele>462</ele>
        <time>2019-12-30T18:45:33Z</time>
      </trkpt>
      <trkpt lat="61.302213616687" lon="12.239021135035">
        <ele>460.6</ele>
        <time>2019-12-30T18:45:35Z</time>
      </trkpt>
      <trkpt lat="61.30211194424" lon="12.239095817764">
        <ele>459.6</ele>
        <time>2019-12-30T18:45:37Z</time>
      </trkpt>
      <trkpt lat="61.302074728604" lon="12.239160777489">
        <ele>459.2</ele>
        <time>2019-12-30T18:45:38Z</time>
      </trkpt>
      <trkpt lat="61.302042625927" lon="12.239261527927">
        <ele>458.8</ele>
        <time>2019-12-30T18:45:39Z</time>
      </trkpt>
      <trkpt lat="61.301998369495" lon="12.239448611935">
        <ele>458.8</ele>
        <time>2019-12-30T18:45:41Z</time>
      </trkpt>
      <trkpt lat="61.302014881838" lon="12.239662182747">
        <ele>458.4</ele>
        <time>2019-12-30T18:45:43Z</time>
      </trkpt>
      <trkpt lat="61.302053941492" lon="12.239765531574">
        <ele>458</ele>
        <time>2019-12-30T18:45:44Z</time>
      </trkpt>
      <trkpt lat="61.302103310883" lon="12.23985220042">
        <ele>457.2</ele>
        <time>2019-12-30T18:45:45Z</time>
      </trkpt>
      <trkpt lat="61.302157960871" lon="12.239917998335">
        <ele>456.2</ele>
        <time>2019-12-30T18:45:46Z</time>
      </trkpt>
      <trkpt lat="61.302213197592" lon="12.239965691346">
        <ele>455.2</ele>
        <time>2019-12-30T18:45:47Z</time>
      </trkpt>
      <trkpt lat="61.302335154237" lon="12.240045906129">
        <ele>453.4</ele>
        <time>2019-12-30T18:45:49Z</time>
      </trkpt>
      <trkpt lat="61.302469935189" lon="12.240106674904">
        <ele>452</ele>
        <time>2019-12-30T18:45:51Z</time>
      </trkpt>
      <trkpt lat="61.302618713914" lon="12.240097203357">
        <ele>451</ele>
        <time>2019-12-30T18:45:53Z</time>
      </trkpt>
      <trkpt lat="61.302686355847" lon="12.240063256662">
        <ele>451</ele>
        <time>2019-12-30T18:45:54Z</time>
      </trkpt>
      <trkpt lat="61.30273974855" lon="12.240002152611">
        <ele>450.6</ele>
        <time>2019-12-30T18:45:55Z</time>
      </trkpt>
      <trkpt lat="61.302798505669" lon="12.239841555407">
        <ele>450.6</ele>
        <time>2019-12-30T18:45:57Z</time>
      </trkpt>
      <trkpt lat="61.302701107991" lon="12.239468728495">
        <ele>452</ele>
        <time>2019-12-30T18:46:06Z</time>
      </trkpt>
      <trkpt lat="61.302670262599" lon="12.239371666093">
        <ele>453.4</ele>
        <time>2019-12-30T18:46:09Z</time>
      </trkpt>
      <trkpt lat="61.302646290365" lon="12.239287595636">
        <ele>454.4</ele>
        <time>2019-12-30T18:46:12Z</time>
      </trkpt>
      <trkpt lat="61.302619719742" lon="12.239194305089">
        <ele>455.6</ele>
        <time>2019-12-30T18:46:15Z</time>
      </trkpt>
      <trkpt lat="61.302611337842" lon="12.239176954556">
        <ele>455.6</ele>
        <time>2019-12-30T18:46:16Z</time>
      </trkpt>
      <trkpt lat="61.302589377264" lon="12.239121131102">
        <ele>456</ele>
        <time>2019-12-30T18:46:18Z</time>
      </trkpt>
      <trkpt lat="61.302575379491" lon="12.239073689548">
        <ele>456.6</ele>
        <time>2019-12-30T18:46:20Z</time>
      </trkpt>
      <trkpt lat="61.302564063926" lon="12.239024320157">
        <ele>457.8</ele>
        <time>2019-12-30T18:46:23Z</time>
      </trkpt>
      <trkpt lat="61.302554843836" lon="12.23895366074">
        <ele>458.8</ele>
        <time>2019-12-30T18:46:27Z</time>
      </trkpt>
      <trkpt lat="61.302547886859" lon="12.238864393505">
        <ele>460</ele>
        <time>2019-12-30T18:46:31Z</time>
      </trkpt>
      <trkpt lat="61.302542857719" lon="12.238753752425">
        <ele>461.2</ele>
        <time>2019-12-30T18:46:35Z</time>
      </trkpt>
      <trkpt lat="61.30254780304" lon="12.238622827147">
        <ele>462.4</ele>
        <time>2019-12-30T18:46:39Z</time>
      </trkpt>
      <trkpt lat="61.302567500505" lon="12.238515035913">
        <ele>463.4</ele>
        <time>2019-12-30T18:46:42Z</time>
      </trkpt>
      <trkpt lat="61.302598764992" lon="12.238408250507">
        <ele>464.2</ele>
        <time>2019-12-30T18:46:45Z</time>
      </trkpt>
      <trkpt lat="61.302616702258" lon="12.238338010185">
        <ele>464.4</ele>
        <time>2019-12-30T18:46:47Z</time>
      </trkpt>
      <trkpt lat="61.302662551251" lon="12.238240696326">
        <ele>465.4</ele>
        <time>2019-12-30T18:46:51Z</time>
      </trkpt>
      <trkpt lat="61.302699934525" lon="12.238154278937">
        <ele>466.6</ele>
        <time>2019-12-30T18:46:55Z</time>
      </trkpt>
      <trkpt lat="61.302724409673" lon="12.238124104097">
        <ele>467.2</ele>
        <time>2019-12-30T18:46:57Z</time>
      </trkpt>
      <trkpt lat="61.302751231753" lon="12.238084960624">
        <ele>467.8</ele>
        <time>2019-12-30T18:46:59Z</time>
      </trkpt>
      <trkpt lat="61.30280596556" lon="12.238005081117">
        <ele>468.8</ele>
        <time>2019-12-30T18:47:03Z</time>
      </trkpt>
      <trkpt lat="61.302883665773" lon="12.2378925122">
        <ele>470</ele>
        <time>2019-12-30T18:47:07Z</time>
      </trkpt>
      <trkpt lat="61.303010819196" lon="12.237651867851">
        <ele>471</ele>
        <time>2019-12-30T18:47:13Z</time>
      </trkpt>
      <trkpt lat="61.30329379214" lon="12.237348945985">
        <ele>470.6</ele>
        <time>2019-12-30T18:47:21Z</time>
      </trkpt>
      <trkpt lat="61.303399906994" lon="12.237298486947">
        <ele>470</ele>
        <time>2019-12-30T18:47:23Z</time>
      </trkpt>
      <trkpt lat="61.303458664113" lon="12.237289685952">
        <ele>469.4</ele>
        <time>2019-12-30T18:47:24Z</time>
      </trkpt>
      <trkpt lat="61.303519684345" lon="12.237303935182">
        <ele>468.6</ele>
        <time>2019-12-30T18:47:25Z</time>
      </trkpt>
      <trkpt lat="61.303576681265" lon="12.23734265956">
        <ele>467.6</ele>
        <time>2019-12-30T18:47:26Z</time>
      </trkpt>
      <trkpt lat="61.303627810855" lon="12.237406781095">
        <ele>466.6</ele>
        <time>2019-12-30T18:47:27Z</time>
      </trkpt>
      <trkpt lat="61.303653291831" lon="12.237504514049">
        <ele>465.8</ele>
        <time>2019-12-30T18:47:28Z</time>
      </trkpt>
      <trkpt lat="61.303658656247" lon="12.237627225065">
        <ele>465</ele>
        <time>2019-12-30T18:47:29Z</time>
      </trkpt>
      <trkpt lat="61.303645664302" lon="12.237778099265">
        <ele>464.2</ele>
        <time>2019-12-30T18:47:30Z</time>
      </trkpt>
      <trkpt lat="61.303626050656" lon="12.237942635962">
        <ele>463.2</ele>
        <time>2019-12-30T18:47:31Z</time>
      </trkpt>
      <trkpt lat="61.303596462549" lon="12.23811547074">
        <ele>461.8</ele>
        <time>2019-12-30T18:47:32Z</time>
      </trkpt>
      <trkpt lat="61.303563102587" lon="12.238278331057">
        <ele>460.2</ele>
        <time>2019-12-30T18:47:33Z</time>
      </trkpt>
      <trkpt lat="61.303496131206" lon="12.238578403077">
        <ele>458.2</ele>
        <time>2019-12-30T18:47:35Z</time>
      </trkpt>
      <trkpt lat="61.303465453452" lon="12.238729696372">
        <ele>456.8</ele>
        <time>2019-12-30T18:47:36Z</time>
      </trkpt>
      <trkpt lat="61.30342119702" lon="12.238880402934">
        <ele>455.8</ele>
        <time>2019-12-30T18:47:37Z</time>
      </trkpt>
      <trkpt lat="61.30330804137" lon="12.239184330628">
        <ele>454.6</ele>
        <time>2019-12-30T18:47:39Z</time>
      </trkpt>
      <trkpt lat="61.303242243455" lon="12.239323386349">
        <ele>453.2</ele>
        <time>2019-12-30T18:47:40Z</time>
      </trkpt>
      <trkpt lat="61.303182815784" lon="12.239452299971">
        <ele>452.2</ele>
        <time>2019-12-30T18:47:41Z</time>
      </trkpt>
      <trkpt lat="61.303057674017" lon="12.239739296227">
        <ele>450.8</ele>
        <time>2019-12-30T18:47:43Z</time>
      </trkpt>
      <trkpt lat="61.302923647436" lon="12.24002738213">
        <ele>448.6</ele>
        <time>2019-12-30T18:47:45Z</time>
      </trkpt>
      <trkpt lat="61.302786854828" lon="12.240217567441">
        <ele>446.8</ele>
        <time>2019-12-30T18:47:47Z</time>
      </trkpt>
      <trkpt lat="61.302667580391" lon="12.24040456763">
        <ele>446</ele>
        <time>2019-12-30T18:47:49Z</time>
      </trkpt>
      <trkpt lat="61.30252014277" lon="12.240796756731">
        <ele>446</ele>
        <time>2019-12-30T18:47:52Z</time>
      </trkpt>
      <trkpt lat="61.302502624599" lon="12.241078137114">
        <ele>446.2</ele>
        <time>2019-12-30T18:47:54Z</time>
      </trkpt>
      <trkpt lat="61.302561968451" lon="12.241350716502">
        <ele>445.8</ele>
        <time>2019-12-30T18:47:56Z</time>
      </trkpt>
      <trkpt lat="61.302612595127" lon="12.241465213256">
        <ele>445.6</ele>
        <time>2019-12-30T18:47:57Z</time>
      </trkpt>
      <trkpt lat="61.302667328934" lon="12.241557665613">
        <ele>445</ele>
        <time>2019-12-30T18:47:58Z</time>
      </trkpt>
      <trkpt lat="61.302720051085" lon="12.241641484613">
        <ele>444.4</ele>
        <time>2019-12-30T18:47:59Z</time>
      </trkpt>
      <trkpt lat="61.302762798775" lon="12.241740307214">
        <ele>443.8</ele>
        <time>2019-12-30T18:48:00Z</time>
      </trkpt>
      <trkpt lat="61.302789620855" lon="12.241865868076">
        <ele>443.2</ele>
        <time>2019-12-30T18:48:01Z</time>
      </trkpt>
      <trkpt lat="61.30279926004" lon="12.242007606005">
        <ele>442.4</ele>
        <time>2019-12-30T18:48:02Z</time>
      </trkpt>
      <trkpt lat="61.302789788493" lon="12.242157474377">
        <ele>441.4</ele>
        <time>2019-12-30T18:48:03Z</time>
      </trkpt>
      <trkpt lat="61.302759948929" lon="12.242301559238">
        <ele>440</ele>
        <time>2019-12-30T18:48:04Z</time>
      </trkpt>
      <trkpt lat="61.302660204319" lon="12.242495264947">
        <ele>439</ele>
        <time>2019-12-30T18:48:06Z</time>
      </trkpt>
      <trkpt lat="61.302392654071" lon="12.242748482146">
        <ele>439.8</ele>
        <time>2019-12-30T18:48:11Z</time>
      </trkpt>
      <trkpt lat="61.302290227253" lon="12.242771532371">
        <ele>439.2</ele>
        <time>2019-12-30T18:48:13Z</time>
      </trkpt>
      <trkpt lat="61.302141783804" lon="12.242722079161">
        <ele>440.4</ele>
        <time>2019-12-30T18:48:17Z</time>
      </trkpt>
      <trkpt lat="61.302050253456" lon="12.242715289822">
        <ele>441.6</ele>
        <time>2019-12-30T18:48:20Z</time>
      </trkpt>
      <trkpt lat="61.301814470609" lon="12.242604481104">
        <ele>442.6</ele>
        <time>2019-12-30T18:48:27Z</time>
      </trkpt>
      <trkpt lat="61.301667787359" lon="12.242497947155">
        <ele>442.8</ele>
        <time>2019-12-30T18:48:31Z</time>
      </trkpt>
      <trkpt lat="61.301368218253" lon="12.24194516085">
        <ele>443.8</ele>
        <time>2019-12-30T18:48:45Z</time>
      </trkpt>
      <trkpt lat="61.30134164763" lon="12.241826473146">
        <ele>445</ele>
        <time>2019-12-30T18:48:48Z</time>
      </trkpt>
      <trkpt lat="61.301303426166" lon="12.241655901481">
        <ele>446.2</ele>
        <time>2019-12-30T18:48:53Z</time>
      </trkpt>
      <trkpt lat="61.301282890511" lon="12.241535369759">
        <ele>447.4</ele>
        <time>2019-12-30T18:48:57Z</time>
      </trkpt>
      <trkpt lat="61.301262103399" lon="12.241419950996">
        <ele>448.6</ele>
        <time>2019-12-30T18:49:01Z</time>
      </trkpt>
      <trkpt lat="61.301247183617" lon="12.241326157535">
        <ele>449.6</ele>
        <time>2019-12-30T18:49:04Z</time>
      </trkpt>
      <trkpt lat="61.301196556941" lon="12.24122767021">
        <ele>450.6</ele>
        <time>2019-12-30T18:49:08Z</time>
      </trkpt>
      <trkpt lat="61.301108882267" lon="12.241188442918">
        <ele>452</ele>
        <time>2019-12-30T18:49:12Z</time>
      </trkpt>
      <trkpt lat="61.300986003613" lon="12.241239321051">
        <ele>453</ele>
        <time>2019-12-30T18:49:16Z</time>
      </trkpt>
      <trkpt lat="61.300809313161" lon="12.24138608812">
        <ele>453.4</ele>
        <time>2019-12-30T18:49:21Z</time>
      </trkpt>
      <trkpt lat="61.300538410153" lon="12.242126042252">
        <ele>453</ele>
        <time>2019-12-30T18:49:33Z</time>
      </trkpt>
      <trkpt lat="61.300642764808" lon="12.242317065753">
        <ele>453</ele>
        <time>2019-12-30T18:49:37Z</time>
      </trkpt>
      <trkpt lat="61.300843595132" lon="12.24243466381">
        <ele>450.8</ele>
        <time>2019-12-30T18:49:40Z</time>
      </trkpt>
      <trkpt lat="61.300930263978" lon="12.242488140332">
        <ele>449</ele>
        <time>2019-12-30T18:49:41Z</time>
      </trkpt>
      <trkpt lat="61.301022800154" lon="12.242547316546">
        <ele>446.8</ele>
        <time>2019-12-30T18:49:42Z</time>
      </trkpt>
      <trkpt lat="61.301114330502" lon="12.242613785013">
        <ele>444.2</ele>
        <time>2019-12-30T18:49:43Z</time>
      </trkpt>
      <trkpt lat="61.301217930786" lon="12.242681594584">
        <ele>442</ele>
        <time>2019-12-30T18:49:44Z</time>
      </trkpt>
      <trkpt lat="61.301325554382" lon="12.242764156299">
        <ele>440.2</ele>
        <time>2019-12-30T18:49:45Z</time>
      </trkpt>
      <trkpt lat="61.301442565706" lon="12.242838587571">
        <ele>439</ele>
        <time>2019-12-30T18:49:46Z</time>
      </trkpt>
      <trkpt lat="61.301555218442" lon="12.24290405021">
        <ele>437.8</ele>
        <time>2019-12-30T18:49:47Z</time>
      </trkpt>
      <trkpt lat="61.301657980536" lon="12.242991641065">
        <ele>436.4</ele>
        <time>2019-12-30T18:49:48Z</time>
      </trkpt>
      <trkpt lat="61.301862750353" lon="12.243132121709">
        <ele>435</ele>
        <time>2019-12-30T18:49:50Z</time>
      </trkpt>
      <trkpt lat="61.301948413371" lon="12.243178808892">
        <ele>434.8</ele>
        <time>2019-12-30T18:49:51Z</time>
      </trkpt>
      <trkpt lat="61.302130216782" lon="12.243186855516">
        <ele>435.2</ele>
        <time>2019-12-30T18:49:53Z</time>
      </trkpt>
      <trkpt lat="61.302472785035" lon="12.243075711522">
        <ele>435.8</ele>
        <time>2019-12-30T18:49:57Z</time>
      </trkpt>
      <trkpt lat="61.302951642982" lon="12.242713445804">
        <ele>435.6</ele>
        <time>2019-12-30T18:50:04Z</time>
      </trkpt>
      <trkpt lat="61.303066726469" lon="12.242604145828">
        <ele>435.4</ele>
        <time>2019-12-30T18:50:06Z</time>
      </trkpt>
      <trkpt lat="61.303210476054" lon="12.242463832822">
        <ele>435.6</ele>
        <time>2019-12-30T18:50:09Z</time>
      </trkpt>
      <trkpt lat="61.303254481029" lon="12.242422342417">
        <ele>436.2</ele>
        <time>2019-12-30T18:50:10Z</time>
      </trkpt>
      <trkpt lat="61.303363864824" lon="12.242312707165">
        <ele>437.2</ele>
        <time>2019-12-30T18:50:13Z</time>
      </trkpt>
      <trkpt lat="61.303528820616" lon="12.242151187952">
        <ele>437.4</ele>
        <time>2019-12-30T18:50:21Z</time>
      </trkpt>
      <trkpt lat="61.303539717086" lon="12.242162335879">
        <ele>437.4</ele>
        <time>2019-12-30T18:50:23Z</time>
      </trkpt>
      <trkpt lat="61.303532843928" lon="12.242170717779">
        <ele>437.4</ele>
        <time>2019-12-30T18:50:24Z</time>
      </trkpt>
    </trkseg>
  </trk>
</gpx>